<?xml version="1.0" encoding="UTF-8" standalone="no" ?>
<gpx xmlns="http://www.topografix.com/GPX/1/1" xmlns:xsi="http://www.w3.org/2001/XMLSchema-instance" xsi:schemaLocation="http://www.topografix.com/GPX/1/1 http://www.topografix.com/GPX/1/1/gpx.xsd" version="1.1" creator="VisuGPX - https://www.visugpx.com">
  <metadata>
    <name>Le Mac de la Jasse</name>
    <desc><![CDATA[Départ de Saint-Martin de Londres]]></desc>
  </metadata>
  <trk>
    <name><![CDATA[Le Mac de la Jasse_1]]></name>
    <trkseg>
      <trkpt lat="43.78907" lon="3.73161">
        <ele>193.1</ele>
        <time>2015-05-28T07:52:24Z</time>
      </trkpt>
      <trkpt lat="43.78908" lon="3.73172">
        <ele>190.1</ele>
        <time>2015-05-28T07:52:34Z</time>
      </trkpt>
      <trkpt lat="43.78914" lon="3.73191">
        <ele>191.1</ele>
        <time>2015-05-28T07:52:51Z</time>
      </trkpt>
      <trkpt lat="43.7892" lon="3.73203">
        <ele>192.1</ele>
        <time>2015-05-28T07:53:01Z</time>
      </trkpt>
      <trkpt lat="43.78921" lon="3.7322">
        <ele>193.1</ele>
        <time>2015-05-28T07:53:13Z</time>
      </trkpt>
      <trkpt lat="43.78918" lon="3.73228">
        <ele>194.1</ele>
        <time>2015-05-28T07:53:20Z</time>
      </trkpt>
      <trkpt lat="43.78911" lon="3.73236">
        <ele>195.1</ele>
        <time>2015-05-28T07:53:30Z</time>
      </trkpt>
      <trkpt lat="43.78909" lon="3.73236">
        <ele>195.1</ele>
        <time>2015-05-28T07:53:33Z</time>
      </trkpt>
      <trkpt lat="43.78869" lon="3.73226">
        <ele>197.1</ele>
        <time>2015-05-28T07:54:13Z</time>
      </trkpt>
      <trkpt lat="43.78862" lon="3.73226">
        <ele>197.1</ele>
        <time>2015-05-28T07:54:19Z</time>
      </trkpt>
      <trkpt lat="43.78851" lon="3.73229">
        <ele>197.1</ele>
        <time>2015-05-28T07:54:29Z</time>
      </trkpt>
      <trkpt lat="43.78844" lon="3.73234">
        <ele>197.1</ele>
        <time>2015-05-28T07:54:35Z</time>
      </trkpt>
      <trkpt lat="43.78839" lon="3.73242">
        <ele>197.1</ele>
        <time>2015-05-28T07:54:41Z</time>
      </trkpt>
      <trkpt lat="43.78837" lon="3.73253">
        <ele>197.1</ele>
        <time>2015-05-28T07:54:49Z</time>
      </trkpt>
      <trkpt lat="43.78833" lon="3.73252">
        <ele>198.1</ele>
        <time>2015-05-28T07:54:54Z</time>
      </trkpt>
      <trkpt lat="43.78826" lon="3.73245">
        <ele>197.1</ele>
        <time>2015-05-28T07:55:02Z</time>
      </trkpt>
      <trkpt lat="43.78819" lon="3.73246">
        <ele>196.1</ele>
        <time>2015-05-28T07:55:09Z</time>
      </trkpt>
      <trkpt lat="43.78815" lon="3.7325">
        <ele>196.1</ele>
        <time>2015-05-28T07:55:13Z</time>
      </trkpt>
      <trkpt lat="43.78809" lon="3.7326">
        <ele>194.1</ele>
        <time>2015-05-28T07:55:21Z</time>
      </trkpt>
      <trkpt lat="43.7879" lon="3.73283">
        <ele>196.1</ele>
        <time>2015-05-28T07:55:43Z</time>
      </trkpt>
      <trkpt lat="43.78782" lon="3.73291">
        <ele>196.1</ele>
        <time>2015-05-28T07:55:52Z</time>
      </trkpt>
      <trkpt lat="43.78771" lon="3.73293">
        <ele>197.1</ele>
        <time>2015-05-28T07:56:02Z</time>
      </trkpt>
      <trkpt lat="43.78752" lon="3.73316">
        <ele>198.1</ele>
        <time>2015-05-28T07:56:25Z</time>
      </trkpt>
      <trkpt lat="43.78739" lon="3.73328">
        <ele>199.1</ele>
        <time>2015-05-28T07:56:38Z</time>
      </trkpt>
      <trkpt lat="43.78705" lon="3.73369">
        <ele>195.1</ele>
        <time>2015-05-28T07:57:14Z</time>
      </trkpt>
      <trkpt lat="43.7868" lon="3.73395">
        <ele>194.1</ele>
        <time>2015-05-28T07:57:41Z</time>
      </trkpt>
      <trkpt lat="43.78677" lon="3.73401">
        <ele>196.1</ele>
        <time>2015-05-28T07:57:48Z</time>
      </trkpt>
      <trkpt lat="43.78673" lon="3.73422">
        <ele>200.1</ele>
        <time>2015-05-28T07:58:08Z</time>
      </trkpt>
      <trkpt lat="43.78671" lon="3.73425">
        <ele>202.1</ele>
        <time>2015-05-28T07:58:11Z</time>
      </trkpt>
      <trkpt lat="43.7864" lon="3.73448">
        <ele>201.1</ele>
        <time>2015-05-28T07:58:37Z</time>
      </trkpt>
      <trkpt lat="43.7861" lon="3.73479">
        <ele>194.1</ele>
        <time>2015-05-28T07:59:16Z</time>
      </trkpt>
      <trkpt lat="43.78608" lon="3.73493">
        <ele>192.1</ele>
        <time>2015-05-28T07:59:24Z</time>
      </trkpt>
      <trkpt lat="43.78606" lon="3.73498">
        <ele>192.1</ele>
        <time>2015-05-28T07:59:28Z</time>
      </trkpt>
      <trkpt lat="43.78579" lon="3.73523">
        <ele>182.1</ele>
        <time>2015-05-28T07:59:59Z</time>
      </trkpt>
      <trkpt lat="43.78561" lon="3.73545">
        <ele>179.1</ele>
        <time>2015-05-28T08:00:20Z</time>
      </trkpt>
      <trkpt lat="43.78537" lon="3.73577">
        <ele>184.1</ele>
        <time>2015-05-28T08:00:48Z</time>
      </trkpt>
      <trkpt lat="43.78494" lon="3.73622">
        <ele>191.1</ele>
        <time>2015-05-28T08:01:32Z</time>
      </trkpt>
      <trkpt lat="43.78492" lon="3.73625">
        <ele>191.1</ele>
        <time>2015-05-28T08:01:36Z</time>
      </trkpt>
      <trkpt lat="43.78491" lon="3.73632">
        <ele>191.1</ele>
        <time>2015-05-28T08:01:40Z</time>
      </trkpt>
      <trkpt lat="43.78492" lon="3.73647">
        <ele>192.1</ele>
        <time>2015-05-28T08:01:49Z</time>
      </trkpt>
      <trkpt lat="43.78492" lon="3.73683">
        <ele>192.1</ele>
        <time>2015-05-28T08:02:10Z</time>
      </trkpt>
      <trkpt lat="43.78494" lon="3.73689">
        <ele>193.1</ele>
        <time>2015-05-28T08:02:14Z</time>
      </trkpt>
      <trkpt lat="43.78493" lon="3.73695">
        <ele>186.1</ele>
        <time>2015-05-28T08:02:43Z</time>
      </trkpt>
      <trkpt lat="43.78489" lon="3.73697">
        <ele>187.1</ele>
        <time>2015-05-28T08:02:47Z</time>
      </trkpt>
      <trkpt lat="43.78477" lon="3.73698">
        <ele>187.1</ele>
        <time>2015-05-28T08:02:57Z</time>
      </trkpt>
      <trkpt lat="43.78465" lon="3.73701">
        <ele>190.1</ele>
        <time>2015-05-28T08:03:08Z</time>
      </trkpt>
      <trkpt lat="43.78438" lon="3.73703">
        <ele>192.1</ele>
        <time>2015-05-28T08:03:35Z</time>
      </trkpt>
      <trkpt lat="43.78412" lon="3.73707">
        <ele>194.1</ele>
        <time>2015-05-28T08:03:59Z</time>
      </trkpt>
      <trkpt lat="43.78403" lon="3.73714">
        <ele>195.1</ele>
        <time>2015-05-28T08:04:08Z</time>
      </trkpt>
      <trkpt lat="43.78379" lon="3.73742">
        <ele>197.1</ele>
        <time>2015-05-28T08:04:36Z</time>
      </trkpt>
      <trkpt lat="43.78359" lon="3.73761">
        <ele>195.1</ele>
        <time>2015-05-28T08:04:58Z</time>
      </trkpt>
      <trkpt lat="43.78345" lon="3.73767">
        <ele>195.1</ele>
        <time>2015-05-28T08:05:11Z</time>
      </trkpt>
      <trkpt lat="43.78318" lon="3.73775">
        <ele>197.1</ele>
        <time>2015-05-28T08:05:36Z</time>
      </trkpt>
      <trkpt lat="43.78305" lon="3.7378">
        <ele>197.1</ele>
        <time>2015-05-28T08:05:48Z</time>
      </trkpt>
      <trkpt lat="43.78275" lon="3.73786">
        <ele>198.1</ele>
        <time>2015-05-28T08:06:15Z</time>
      </trkpt>
      <trkpt lat="43.78249" lon="3.73798">
        <ele>200.1</ele>
        <time>2015-05-28T08:06:40Z</time>
      </trkpt>
      <trkpt lat="43.78232" lon="3.7381">
        <ele>200.1</ele>
        <time>2015-05-28T08:06:57Z</time>
      </trkpt>
      <trkpt lat="43.78214" lon="3.73829">
        <ele>203.1</ele>
        <time>2015-05-28T08:07:17Z</time>
      </trkpt>
      <trkpt lat="43.78175" lon="3.73877">
        <ele>205.1</ele>
        <time>2015-05-28T08:08:03Z</time>
      </trkpt>
      <trkpt lat="43.78158" lon="3.73895">
        <ele>207.1</ele>
        <time>2015-05-28T08:08:22Z</time>
      </trkpt>
      <trkpt lat="43.78135" lon="3.73922">
        <ele>210.1</ele>
        <time>2015-05-28T08:08:49Z</time>
      </trkpt>
      <trkpt lat="43.78115" lon="3.73953">
        <ele>213.1</ele>
        <time>2015-05-28T08:09:15Z</time>
      </trkpt>
      <trkpt lat="43.78078" lon="3.74023">
        <ele>215.1</ele>
        <time>2015-05-28T08:10:07Z</time>
      </trkpt>
      <trkpt lat="43.78058" lon="3.74054">
        <ele>216.1</ele>
        <time>2015-05-28T08:10:34Z</time>
      </trkpt>
      <trkpt lat="43.78059" lon="3.74055">
        <ele>216.1</ele>
        <time>2015-05-28T08:10:56Z</time>
      </trkpt>
      <trkpt lat="43.78058" lon="3.74061">
        <ele>210.1</ele>
        <time>2015-05-28T08:11:28Z</time>
      </trkpt>
      <trkpt lat="43.78033" lon="3.74097">
        <ele>211.1</ele>
        <time>2015-05-28T08:13:29Z</time>
      </trkpt>
      <trkpt lat="43.7801" lon="3.74132">
        <ele>212.1</ele>
        <time>2015-05-28T08:13:59Z</time>
      </trkpt>
      <trkpt lat="43.77992" lon="3.74152">
        <ele>212.1</ele>
        <time>2015-05-28T08:14:20Z</time>
      </trkpt>
      <trkpt lat="43.77976" lon="3.74164">
        <ele>213.1</ele>
        <time>2015-05-28T08:14:35Z</time>
      </trkpt>
      <trkpt lat="43.77935" lon="3.74192">
        <ele>214.1</ele>
        <time>2015-05-28T08:15:17Z</time>
      </trkpt>
      <trkpt lat="43.77901" lon="3.74212">
        <ele>216.1</ele>
        <time>2015-05-28T08:15:49Z</time>
      </trkpt>
      <trkpt lat="43.77891" lon="3.7422">
        <ele>216.1</ele>
        <time>2015-05-28T08:15:59Z</time>
      </trkpt>
      <trkpt lat="43.77878" lon="3.74236">
        <ele>216.1</ele>
        <time>2015-05-28T08:16:14Z</time>
      </trkpt>
      <trkpt lat="43.77869" lon="3.74259">
        <ele>218.1</ele>
        <time>2015-05-28T08:16:31Z</time>
      </trkpt>
      <trkpt lat="43.7787" lon="3.74273">
        <ele>219.1</ele>
        <time>2015-05-28T08:16:40Z</time>
      </trkpt>
      <trkpt lat="43.77876" lon="3.74288">
        <ele>219.1</ele>
        <time>2015-05-28T08:16:50Z</time>
      </trkpt>
      <trkpt lat="43.77892" lon="3.74307">
        <ele>218.1</ele>
        <time>2015-05-28T08:17:08Z</time>
      </trkpt>
      <trkpt lat="43.77901" lon="3.74312">
        <ele>218.1</ele>
        <time>2015-05-28T08:17:15Z</time>
      </trkpt>
      <trkpt lat="43.77908" lon="3.74314">
        <ele>217.1</ele>
        <time>2015-05-28T08:17:20Z</time>
      </trkpt>
      <trkpt lat="43.77914" lon="3.74313">
        <ele>217.1</ele>
        <time>2015-05-28T08:17:25Z</time>
      </trkpt>
      <trkpt lat="43.77956" lon="3.74301">
        <ele>218.1</ele>
        <time>2015-05-28T08:18:01Z</time>
      </trkpt>
      <trkpt lat="43.77993" lon="3.74296">
        <ele>218.1</ele>
        <time>2015-05-28T08:18:34Z</time>
      </trkpt>
      <trkpt lat="43.78012" lon="3.74294">
        <ele>219.1</ele>
        <time>2015-05-28T08:18:52Z</time>
      </trkpt>
      <trkpt lat="43.78028" lon="3.74296">
        <ele>220.1</ele>
        <time>2015-05-28T08:19:07Z</time>
      </trkpt>
      <trkpt lat="43.78037" lon="3.74298">
        <ele>220.1</ele>
        <time>2015-05-28T08:19:15Z</time>
      </trkpt>
      <trkpt lat="43.78047" lon="3.74303">
        <ele>218.1</ele>
        <time>2015-05-28T08:19:25Z</time>
      </trkpt>
      <trkpt lat="43.78064" lon="3.74324">
        <ele>218.1</ele>
        <time>2015-05-28T08:19:46Z</time>
      </trkpt>
      <trkpt lat="43.78075" lon="3.74333">
        <ele>219.1</ele>
        <time>2015-05-28T08:19:57Z</time>
      </trkpt>
      <trkpt lat="43.7809" lon="3.7434">
        <ele>220.1</ele>
        <time>2015-05-28T08:20:11Z</time>
      </trkpt>
      <trkpt lat="43.78106" lon="3.74345">
        <ele>221.1</ele>
        <time>2015-05-28T08:20:26Z</time>
      </trkpt>
      <trkpt lat="43.78112" lon="3.74345">
        <ele>223.1</ele>
        <time>2015-05-28T08:20:32Z</time>
      </trkpt>
      <trkpt lat="43.78121" lon="3.74344">
        <ele>223.1</ele>
        <time>2015-05-28T08:20:40Z</time>
      </trkpt>
      <trkpt lat="43.78125" lon="3.74349">
        <ele>223.1</ele>
        <time>2015-05-28T08:20:46Z</time>
      </trkpt>
      <trkpt lat="43.78128" lon="3.74374">
        <ele>225.1</ele>
        <time>2015-05-28T08:21:10Z</time>
      </trkpt>
      <trkpt lat="43.78139" lon="3.74416">
        <ele>226.1</ele>
        <time>2015-05-28T08:21:40Z</time>
      </trkpt>
      <trkpt lat="43.78143" lon="3.74454">
        <ele>226.1</ele>
        <time>2015-05-28T08:22:04Z</time>
      </trkpt>
      <trkpt lat="43.78142" lon="3.74474">
        <ele>227.1</ele>
        <time>2015-05-28T08:22:16Z</time>
      </trkpt>
      <trkpt lat="43.7813" lon="3.74523">
        <ele>228.1</ele>
        <time>2015-05-28T08:22:48Z</time>
      </trkpt>
      <trkpt lat="43.78127" lon="3.74547">
        <ele>229.1</ele>
        <time>2015-05-28T08:23:03Z</time>
      </trkpt>
      <trkpt lat="43.78129" lon="3.74599">
        <ele>228.1</ele>
        <time>2015-05-28T08:23:35Z</time>
      </trkpt>
      <trkpt lat="43.78129" lon="3.74627">
        <ele>228.1</ele>
        <time>2015-05-28T08:23:57Z</time>
      </trkpt>
      <trkpt lat="43.78132" lon="3.74634">
        <ele>229.1</ele>
        <time>2015-05-28T08:24:27Z</time>
      </trkpt>
      <trkpt lat="43.78136" lon="3.74659">
        <ele>229.1</ele>
        <time>2015-05-28T08:24:45Z</time>
      </trkpt>
      <trkpt lat="43.78142" lon="3.74683">
        <ele>230.1</ele>
        <time>2015-05-28T08:25:04Z</time>
      </trkpt>
      <trkpt lat="43.78144" lon="3.74702">
        <ele>230.2</ele>
        <time>2015-05-28T08:25:17Z</time>
      </trkpt>
      <trkpt lat="43.78147" lon="3.74709">
        <ele>230.2</ele>
        <time>2015-05-28T08:25:23Z</time>
      </trkpt>
      <trkpt lat="43.78158" lon="3.74722">
        <ele>231.2</ele>
        <time>2015-05-28T08:25:39Z</time>
      </trkpt>
      <trkpt lat="43.78163" lon="3.74731">
        <ele>231.2</ele>
        <time>2015-05-28T08:25:47Z</time>
      </trkpt>
      <trkpt lat="43.78188" lon="3.74784">
        <ele>230.2</ele>
        <time>2015-05-28T08:26:29Z</time>
      </trkpt>
      <trkpt lat="43.78198" lon="3.74813">
        <ele>231.2</ele>
        <time>2015-05-28T08:26:51Z</time>
      </trkpt>
      <trkpt lat="43.78198" lon="3.74836">
        <ele>231.2</ele>
        <time>2015-05-28T08:27:06Z</time>
      </trkpt>
      <trkpt lat="43.78187" lon="3.74894">
        <ele>234.2</ele>
        <time>2015-05-28T08:27:49Z</time>
      </trkpt>
      <trkpt lat="43.78176" lon="3.74916">
        <ele>235.2</ele>
        <time>2015-05-28T08:28:09Z</time>
      </trkpt>
      <trkpt lat="43.78154" lon="3.74948">
        <ele>236.2</ele>
        <time>2015-05-28T08:28:40Z</time>
      </trkpt>
      <trkpt lat="43.78125" lon="3.74982">
        <ele>238.2</ele>
        <time>2015-05-28T08:29:17Z</time>
      </trkpt>
      <trkpt lat="43.78109" lon="3.74997">
        <ele>238.2</ele>
        <time>2015-05-28T08:29:35Z</time>
      </trkpt>
      <trkpt lat="43.78085" lon="3.7501">
        <ele>238.2</ele>
        <time>2015-05-28T08:29:57Z</time>
      </trkpt>
      <trkpt lat="43.78079" lon="3.75015">
        <ele>238.2</ele>
        <time>2015-05-28T08:30:04Z</time>
      </trkpt>
      <trkpt lat="43.78074" lon="3.75024">
        <ele>239.2</ele>
        <time>2015-05-28T08:30:11Z</time>
      </trkpt>
      <trkpt lat="43.78068" lon="3.75041">
        <ele>238.2</ele>
        <time>2015-05-28T08:30:22Z</time>
      </trkpt>
      <trkpt lat="43.78065" lon="3.7505">
        <ele>239.2</ele>
        <time>2015-05-28T08:30:28Z</time>
      </trkpt>
      <trkpt lat="43.78065" lon="3.75057">
        <ele>239.2</ele>
        <time>2015-05-28T08:30:33Z</time>
      </trkpt>
      <trkpt lat="43.78068" lon="3.75074">
        <ele>238.2</ele>
        <time>2015-05-28T08:30:46Z</time>
      </trkpt>
      <trkpt lat="43.78071" lon="3.75079">
        <ele>238.2</ele>
        <time>2015-05-28T08:30:51Z</time>
      </trkpt>
      <trkpt lat="43.78074" lon="3.7508">
        <ele>238.2</ele>
        <time>2015-05-28T08:30:55Z</time>
      </trkpt>
      <trkpt lat="43.78089" lon="3.7508">
        <ele>238.2</ele>
        <time>2015-05-28T08:31:07Z</time>
      </trkpt>
      <trkpt lat="43.781" lon="3.75085">
        <ele>238.2</ele>
        <time>2015-05-28T08:31:17Z</time>
      </trkpt>
      <trkpt lat="43.78133" lon="3.75126">
        <ele>239.2</ele>
        <time>2015-05-28T08:31:59Z</time>
      </trkpt>
      <trkpt lat="43.78144" lon="3.75142">
        <ele>240.2</ele>
        <time>2015-05-28T08:32:15Z</time>
      </trkpt>
      <trkpt lat="43.78148" lon="3.75145">
        <ele>240.2</ele>
        <time>2015-05-28T08:32:20Z</time>
      </trkpt>
      <trkpt lat="43.78163" lon="3.7515">
        <ele>241.2</ele>
        <time>2015-05-28T08:32:36Z</time>
      </trkpt>
      <trkpt lat="43.78168" lon="3.75156">
        <ele>242.2</ele>
        <time>2015-05-28T08:32:46Z</time>
      </trkpt>
      <trkpt lat="43.78179" lon="3.75187">
        <ele>242.2</ele>
        <time>2015-05-28T08:33:16Z</time>
      </trkpt>
      <trkpt lat="43.78177" lon="3.7521">
        <ele>241.2</ele>
        <time>2015-05-28T08:33:39Z</time>
      </trkpt>
      <trkpt lat="43.78171" lon="3.7523">
        <ele>242.2</ele>
        <time>2015-05-28T08:33:54Z</time>
      </trkpt>
      <trkpt lat="43.7817" lon="3.75242">
        <ele>241.2</ele>
        <time>2015-05-28T08:34:04Z</time>
      </trkpt>
      <trkpt lat="43.78174" lon="3.75245">
        <ele>238.2</ele>
        <time>2015-05-28T08:34:53Z</time>
      </trkpt>
      <trkpt lat="43.78174" lon="3.75244">
        <ele>238.2</ele>
        <time>2015-05-28T08:35:03Z</time>
      </trkpt>
      <trkpt lat="43.78182" lon="3.75222">
        <ele>240.2</ele>
        <time>2015-05-28T08:35:48Z</time>
      </trkpt>
      <trkpt lat="43.78192" lon="3.75218">
        <ele>240.2</ele>
        <time>2015-05-28T08:42:11Z</time>
      </trkpt>
      <trkpt lat="43.78192" lon="3.75222">
        <ele>239.2</ele>
        <time>2015-05-28T08:42:34Z</time>
      </trkpt>
      <trkpt lat="43.78196" lon="3.75221">
        <ele>238.2</ele>
        <time>2015-05-28T08:43:06Z</time>
      </trkpt>
      <trkpt lat="43.78197" lon="3.75222">
        <ele>238.2</ele>
        <time>2015-05-28T08:43:09Z</time>
      </trkpt>
      <trkpt lat="43.78199" lon="3.75233">
        <ele>239.2</ele>
        <time>2015-05-28T08:43:21Z</time>
      </trkpt>
      <trkpt lat="43.78197" lon="3.75239">
        <ele>237.2</ele>
        <time>2015-05-28T08:43:30Z</time>
      </trkpt>
      <trkpt lat="43.78193" lon="3.75243">
        <ele>238.2</ele>
        <time>2015-05-28T08:43:37Z</time>
      </trkpt>
      <trkpt lat="43.78181" lon="3.75248">
        <ele>237.2</ele>
        <time>2015-05-28T08:43:47Z</time>
      </trkpt>
      <trkpt lat="43.7817" lon="3.75249">
        <ele>238.2</ele>
        <time>2015-05-28T08:44:07Z</time>
      </trkpt>
      <trkpt lat="43.78172" lon="3.75252">
        <ele>239.2</ele>
        <time>2015-05-28T08:44:42Z</time>
      </trkpt>
      <trkpt lat="43.78158" lon="3.75253">
        <ele>240.2</ele>
        <time>2015-05-28T08:45:20Z</time>
      </trkpt>
      <trkpt lat="43.78147" lon="3.75257">
        <ele>241.2</ele>
        <time>2015-05-28T08:45:27Z</time>
      </trkpt>
      <trkpt lat="43.78124" lon="3.75276">
        <ele>237.2</ele>
        <time>2015-05-28T08:45:53Z</time>
      </trkpt>
      <trkpt lat="43.78118" lon="3.75284">
        <ele>238.2</ele>
        <time>2015-05-28T08:46:03Z</time>
      </trkpt>
      <trkpt lat="43.7811" lon="3.75298">
        <ele>242.2</ele>
        <time>2015-05-28T08:46:19Z</time>
      </trkpt>
      <trkpt lat="43.781" lon="3.75338">
        <ele>243.2</ele>
        <time>2015-05-28T08:46:48Z</time>
      </trkpt>
      <trkpt lat="43.781" lon="3.75355">
        <ele>243.2</ele>
        <time>2015-05-28T08:47:01Z</time>
      </trkpt>
      <trkpt lat="43.78104" lon="3.75363">
        <ele>243.2</ele>
        <time>2015-05-28T08:47:08Z</time>
      </trkpt>
      <trkpt lat="43.78111" lon="3.75369">
        <ele>243.2</ele>
        <time>2015-05-28T08:47:16Z</time>
      </trkpt>
      <trkpt lat="43.78128" lon="3.75378">
        <ele>243.2</ele>
        <time>2015-05-28T08:47:35Z</time>
      </trkpt>
      <trkpt lat="43.78176" lon="3.75396">
        <ele>217.2</ele>
        <time>2015-05-28T08:48:27Z</time>
      </trkpt>
      <trkpt lat="43.78203" lon="3.75419">
        <ele>223.2</ele>
        <time>2015-05-28T08:49:01Z</time>
      </trkpt>
      <trkpt lat="43.78217" lon="3.75438">
        <ele>225.2</ele>
        <time>2015-05-28T08:49:21Z</time>
      </trkpt>
      <trkpt lat="43.78223" lon="3.75449">
        <ele>226.2</ele>
        <time>2015-05-28T08:49:32Z</time>
      </trkpt>
      <trkpt lat="43.78223" lon="3.75468">
        <ele>228.2</ele>
        <time>2015-05-28T08:49:48Z</time>
      </trkpt>
      <trkpt lat="43.78218" lon="3.75486">
        <ele>230.2</ele>
        <time>2015-05-28T08:50:04Z</time>
      </trkpt>
      <trkpt lat="43.78218" lon="3.75492">
        <ele>230.2</ele>
        <time>2015-05-28T08:50:09Z</time>
      </trkpt>
      <trkpt lat="43.7822" lon="3.75502">
        <ele>230.2</ele>
        <time>2015-05-28T08:50:19Z</time>
      </trkpt>
      <trkpt lat="43.78227" lon="3.75513">
        <ele>229.2</ele>
        <time>2015-05-28T08:50:28Z</time>
      </trkpt>
      <trkpt lat="43.78239" lon="3.75529">
        <ele>230.2</ele>
        <time>2015-05-28T08:50:43Z</time>
      </trkpt>
      <trkpt lat="43.78254" lon="3.75543">
        <ele>231.2</ele>
        <time>2015-05-28T08:51:01Z</time>
      </trkpt>
      <trkpt lat="43.78273" lon="3.75569">
        <ele>232.2</ele>
        <time>2015-05-28T08:51:29Z</time>
      </trkpt>
      <trkpt lat="43.78284" lon="3.75582">
        <ele>230.2</ele>
        <time>2015-05-28T08:51:42Z</time>
      </trkpt>
      <trkpt lat="43.78305" lon="3.75597">
        <ele>230.2</ele>
        <time>2015-05-28T08:52:05Z</time>
      </trkpt>
      <trkpt lat="43.78318" lon="3.75609">
        <ele>230.2</ele>
        <time>2015-05-28T08:52:22Z</time>
      </trkpt>
      <trkpt lat="43.78332" lon="3.75618">
        <ele>229.2</ele>
        <time>2015-05-28T08:52:37Z</time>
      </trkpt>
      <trkpt lat="43.78337" lon="3.75617">
        <ele>230.2</ele>
        <time>2015-05-28T08:52:43Z</time>
      </trkpt>
      <trkpt lat="43.78339" lon="3.7561">
        <ele>231.2</ele>
        <time>2015-05-28T08:52:53Z</time>
      </trkpt>
      <trkpt lat="43.78345" lon="3.75624">
        <ele>230.2</ele>
        <time>2015-05-28T08:53:09Z</time>
      </trkpt>
      <trkpt lat="43.78352" lon="3.75634">
        <ele>227.2</ele>
        <time>2015-05-28T08:53:21Z</time>
      </trkpt>
      <trkpt lat="43.78362" lon="3.75643">
        <ele>225.2</ele>
        <time>2015-05-28T08:53:37Z</time>
      </trkpt>
      <trkpt lat="43.78355" lon="3.75654">
        <ele>219.2</ele>
        <time>2015-05-28T08:55:44Z</time>
      </trkpt>
      <trkpt lat="43.78354" lon="3.7566">
        <ele>218.2</ele>
        <time>2015-05-28T08:56:25Z</time>
      </trkpt>
      <trkpt lat="43.78355" lon="3.75663">
        <ele>216.2</ele>
        <time>2015-05-28T08:56:32Z</time>
      </trkpt>
      <trkpt lat="43.78347" lon="3.75665">
        <ele>213.2</ele>
        <time>2015-05-28T08:57:00Z</time>
      </trkpt>
      <trkpt lat="43.78334" lon="3.75675">
        <ele>215.2</ele>
        <time>2015-05-28T08:57:22Z</time>
      </trkpt>
      <trkpt lat="43.7833" lon="3.75684">
        <ele>215.2</ele>
        <time>2015-05-28T08:57:41Z</time>
      </trkpt>
      <trkpt lat="43.78328" lon="3.75693">
        <ele>216.2</ele>
        <time>2015-05-28T08:57:47Z</time>
      </trkpt>
      <trkpt lat="43.78329" lon="3.75704">
        <ele>218.2</ele>
        <time>2015-05-28T08:57:55Z</time>
      </trkpt>
      <trkpt lat="43.78334" lon="3.75718">
        <ele>219.2</ele>
        <time>2015-05-28T08:58:08Z</time>
      </trkpt>
      <trkpt lat="43.7834" lon="3.7574">
        <ele>220.2</ele>
        <time>2015-05-28T08:58:25Z</time>
      </trkpt>
      <trkpt lat="43.78342" lon="3.7576">
        <ele>220.2</ele>
        <time>2015-05-28T08:58:39Z</time>
      </trkpt>
      <trkpt lat="43.78342" lon="3.75777">
        <ele>220.2</ele>
        <time>2015-05-28T08:58:50Z</time>
      </trkpt>
      <trkpt lat="43.78338" lon="3.75807">
        <ele>220.2</ele>
        <time>2015-05-28T08:59:09Z</time>
      </trkpt>
      <trkpt lat="43.78334" lon="3.75826">
        <ele>220.2</ele>
        <time>2015-05-28T08:59:22Z</time>
      </trkpt>
      <trkpt lat="43.78331" lon="3.75852">
        <ele>220.2</ele>
        <time>2015-05-28T08:59:39Z</time>
      </trkpt>
      <trkpt lat="43.78331" lon="3.75873">
        <ele>220.2</ele>
        <time>2015-05-28T08:59:53Z</time>
      </trkpt>
      <trkpt lat="43.7833" lon="3.75875">
        <ele>220.2</ele>
        <time>2015-05-28T09:00:04Z</time>
      </trkpt>
      <trkpt lat="43.78332" lon="3.75895">
        <ele>218.2</ele>
        <time>2015-05-28T09:00:18Z</time>
      </trkpt>
      <trkpt lat="43.7833" lon="3.75928">
        <ele>217.2</ele>
        <time>2015-05-28T09:00:40Z</time>
      </trkpt>
      <trkpt lat="43.78332" lon="3.75971">
        <ele>216.2</ele>
        <time>2015-05-28T09:01:23Z</time>
      </trkpt>
      <trkpt lat="43.78333" lon="3.75971">
        <ele>206.2</ele>
        <time>2015-05-28T09:01:57Z</time>
      </trkpt>
      <trkpt lat="43.78336" lon="3.75969">
        <ele>207.2</ele>
        <time>2015-05-28T09:02:22Z</time>
      </trkpt>
      <trkpt lat="43.78342" lon="3.75972">
        <ele>208.2</ele>
        <time>2015-05-28T09:02:32Z</time>
      </trkpt>
      <trkpt lat="43.78381" lon="3.76013">
        <ele>209.2</ele>
        <time>2015-05-28T09:03:19Z</time>
      </trkpt>
      <trkpt lat="43.78407" lon="3.76037">
        <ele>209.2</ele>
        <time>2015-05-28T09:03:47Z</time>
      </trkpt>
      <trkpt lat="43.78453" lon="3.76116">
        <ele>210.2</ele>
        <time>2015-05-28T09:04:57Z</time>
      </trkpt>
      <trkpt lat="43.78465" lon="3.76132">
        <ele>211.2</ele>
        <time>2015-05-28T09:05:15Z</time>
      </trkpt>
      <trkpt lat="43.78489" lon="3.76176">
        <ele>210.2</ele>
        <time>2015-05-28T09:05:50Z</time>
      </trkpt>
      <trkpt lat="43.78493" lon="3.7619">
        <ele>210.2</ele>
        <time>2015-05-28T09:06:00Z</time>
      </trkpt>
      <trkpt lat="43.78497" lon="3.76214">
        <ele>207.2</ele>
        <time>2015-05-28T09:06:18Z</time>
      </trkpt>
      <trkpt lat="43.78499" lon="3.76237">
        <ele>205.2</ele>
        <time>2015-05-28T09:06:32Z</time>
      </trkpt>
      <trkpt lat="43.78505" lon="3.76279">
        <ele>205.2</ele>
        <time>2015-05-28T09:06:59Z</time>
      </trkpt>
      <trkpt lat="43.78517" lon="3.76328">
        <ele>201.2</ele>
        <time>2015-05-28T09:07:30Z</time>
      </trkpt>
      <trkpt lat="43.7854" lon="3.76391">
        <ele>202.2</ele>
        <time>2015-05-28T09:08:15Z</time>
      </trkpt>
      <trkpt lat="43.7855" lon="3.76408">
        <ele>178.2</ele>
        <time>2015-05-28T09:08:27Z</time>
      </trkpt>
      <trkpt lat="43.78561" lon="3.76425">
        <ele>182.2</ele>
        <time>2015-05-28T09:08:42Z</time>
      </trkpt>
      <trkpt lat="43.78568" lon="3.76444">
        <ele>187.2</ele>
        <time>2015-05-28T09:08:56Z</time>
      </trkpt>
      <trkpt lat="43.78587" lon="3.76553">
        <ele>199.2</ele>
        <time>2015-05-28T09:10:08Z</time>
      </trkpt>
      <trkpt lat="43.7859" lon="3.76578">
        <ele>200.2</ele>
        <time>2015-05-28T09:10:23Z</time>
      </trkpt>
      <trkpt lat="43.78588" lon="3.76619">
        <ele>201.2</ele>
        <time>2015-05-28T09:10:51Z</time>
      </trkpt>
      <trkpt lat="43.78577" lon="3.76661">
        <ele>203.2</ele>
        <time>2015-05-28T09:11:19Z</time>
      </trkpt>
      <trkpt lat="43.78574" lon="3.76681">
        <ele>203.2</ele>
        <time>2015-05-28T09:11:32Z</time>
      </trkpt>
      <trkpt lat="43.78573" lon="3.76707">
        <ele>205.2</ele>
        <time>2015-05-28T09:11:48Z</time>
      </trkpt>
      <trkpt lat="43.78575" lon="3.76741">
        <ele>207.2</ele>
        <time>2015-05-28T09:12:10Z</time>
      </trkpt>
      <trkpt lat="43.78576" lon="3.76815">
        <ele>210.2</ele>
        <time>2015-05-28T09:12:57Z</time>
      </trkpt>
      <trkpt lat="43.78574" lon="3.76858">
        <ele>210.2</ele>
        <time>2015-05-28T09:13:24Z</time>
      </trkpt>
      <trkpt lat="43.78557" lon="3.76942">
        <ele>211.2</ele>
        <time>2015-05-28T09:14:23Z</time>
      </trkpt>
      <trkpt lat="43.7855" lon="3.76958">
        <ele>211.2</ele>
        <time>2015-05-28T09:14:42Z</time>
      </trkpt>
      <trkpt lat="43.78546" lon="3.76962">
        <ele>213.2</ele>
        <time>2015-05-28T09:15:28Z</time>
      </trkpt>
      <trkpt lat="43.78549" lon="3.76962">
        <ele>215.2</ele>
        <time>2015-05-28T09:15:51Z</time>
      </trkpt>
      <trkpt lat="43.78552" lon="3.76964">
        <ele>215.2</ele>
        <time>2015-05-28T09:15:56Z</time>
      </trkpt>
      <trkpt lat="43.78554" lon="3.76969">
        <ele>214.2</ele>
        <time>2015-05-28T09:16:02Z</time>
      </trkpt>
      <trkpt lat="43.78553" lon="3.76975">
        <ele>213.2</ele>
        <time>2015-05-28T09:16:12Z</time>
      </trkpt>
      <trkpt lat="43.7855" lon="3.76983">
        <ele>214.2</ele>
        <time>2015-05-28T09:16:23Z</time>
      </trkpt>
      <trkpt lat="43.78545" lon="3.76987">
        <ele>214.2</ele>
        <time>2015-05-28T09:16:35Z</time>
      </trkpt>
      <trkpt lat="43.78537" lon="3.77041">
        <ele>216.2</ele>
        <time>2015-05-28T09:17:23Z</time>
      </trkpt>
      <trkpt lat="43.78526" lon="3.77069">
        <ele>217.2</ele>
        <time>2015-05-28T09:17:43Z</time>
      </trkpt>
      <trkpt lat="43.78519" lon="3.77092">
        <ele>217.2</ele>
        <time>2015-05-28T09:17:59Z</time>
      </trkpt>
      <trkpt lat="43.78517" lon="3.77105">
        <ele>217.2</ele>
        <time>2015-05-28T09:18:08Z</time>
      </trkpt>
      <trkpt lat="43.78514" lon="3.77178">
        <ele>217.2</ele>
        <time>2015-05-28T09:18:57Z</time>
      </trkpt>
      <trkpt lat="43.78511" lon="3.7721">
        <ele>218.2</ele>
        <time>2015-05-28T09:19:19Z</time>
      </trkpt>
      <trkpt lat="43.78498" lon="3.7724">
        <ele>217.2</ele>
        <time>2015-05-28T09:19:42Z</time>
      </trkpt>
      <trkpt lat="43.7847" lon="3.77296">
        <ele>215.2</ele>
        <time>2015-05-28T09:20:28Z</time>
      </trkpt>
      <trkpt lat="43.78457" lon="3.77313">
        <ele>213.2</ele>
        <time>2015-05-28T09:20:45Z</time>
      </trkpt>
      <trkpt lat="43.78441" lon="3.77327">
        <ele>211.2</ele>
        <time>2015-05-28T09:21:05Z</time>
      </trkpt>
      <trkpt lat="43.78408" lon="3.77375">
        <ele>213.2</ele>
        <time>2015-05-28T09:21:50Z</time>
      </trkpt>
      <trkpt lat="43.78384" lon="3.77418">
        <ele>212.2</ele>
        <time>2015-05-28T09:22:27Z</time>
      </trkpt>
      <trkpt lat="43.78366" lon="3.77467">
        <ele>212.2</ele>
        <time>2015-05-28T09:23:03Z</time>
      </trkpt>
      <trkpt lat="43.78341" lon="3.77503">
        <ele>211.2</ele>
        <time>2015-05-28T09:23:38Z</time>
      </trkpt>
      <trkpt lat="43.78323" lon="3.77537">
        <ele>211.2</ele>
        <time>2015-05-28T09:24:11Z</time>
      </trkpt>
      <trkpt lat="43.78317" lon="3.77544">
        <ele>210.2</ele>
        <time>2015-05-28T09:24:21Z</time>
      </trkpt>
      <trkpt lat="43.78313" lon="3.77547">
        <ele>210.2</ele>
        <time>2015-05-28T09:24:28Z</time>
      </trkpt>
      <trkpt lat="43.78306" lon="3.77547">
        <ele>210.2</ele>
        <time>2015-05-28T09:24:39Z</time>
      </trkpt>
      <trkpt lat="43.78291" lon="3.77654">
        <ele>206.2</ele>
        <time>2015-05-28T10:44:27Z</time>
      </trkpt>
      <trkpt lat="43.78275" lon="3.77677">
        <ele>207.2</ele>
        <time>2015-05-28T10:44:47Z</time>
      </trkpt>
      <trkpt lat="43.78259" lon="3.77693">
        <ele>208.2</ele>
        <time>2015-05-28T10:45:05Z</time>
      </trkpt>
      <trkpt lat="43.78248" lon="3.7771">
        <ele>208.2</ele>
        <time>2015-05-28T10:45:20Z</time>
      </trkpt>
      <trkpt lat="43.78231" lon="3.77723">
        <ele>208.2</ele>
        <time>2015-05-28T10:45:36Z</time>
      </trkpt>
      <trkpt lat="43.78228" lon="3.77728">
        <ele>208.2</ele>
        <time>2015-05-28T10:45:40Z</time>
      </trkpt>
      <trkpt lat="43.78223" lon="3.77737">
        <ele>208.2</ele>
        <time>2015-05-28T10:45:49Z</time>
      </trkpt>
      <trkpt lat="43.78218" lon="3.77756">
        <ele>208.2</ele>
        <time>2015-05-28T10:46:02Z</time>
      </trkpt>
      <trkpt lat="43.78214" lon="3.77794">
        <ele>209.2</ele>
        <time>2015-05-28T10:46:28Z</time>
      </trkpt>
      <trkpt lat="43.78209" lon="3.77808">
        <ele>209.2</ele>
        <time>2015-05-28T10:46:43Z</time>
      </trkpt>
      <trkpt lat="43.78209" lon="3.77812">
        <ele>209.2</ele>
        <time>2015-05-28T10:46:52Z</time>
      </trkpt>
      <trkpt lat="43.78205" lon="3.77823">
        <ele>209.2</ele>
        <time>2015-05-28T10:47:03Z</time>
      </trkpt>
      <trkpt lat="43.78186" lon="3.7785">
        <ele>210.2</ele>
        <time>2015-05-28T10:47:32Z</time>
      </trkpt>
      <trkpt lat="43.78165" lon="3.77867">
        <ele>211.2</ele>
        <time>2015-05-28T10:47:57Z</time>
      </trkpt>
      <trkpt lat="43.78159" lon="3.7787">
        <ele>212.2</ele>
        <time>2015-05-28T10:48:03Z</time>
      </trkpt>
      <trkpt lat="43.78153" lon="3.77869">
        <ele>212.2</ele>
        <time>2015-05-28T10:48:09Z</time>
      </trkpt>
      <trkpt lat="43.78139" lon="3.77858">
        <ele>213.2</ele>
        <time>2015-05-28T10:48:25Z</time>
      </trkpt>
      <trkpt lat="43.78133" lon="3.77855">
        <ele>213.2</ele>
        <time>2015-05-28T10:48:32Z</time>
      </trkpt>
      <trkpt lat="43.78123" lon="3.77857">
        <ele>212.2</ele>
        <time>2015-05-28T10:48:45Z</time>
      </trkpt>
      <trkpt lat="43.78107" lon="3.77858">
        <ele>212.2</ele>
        <time>2015-05-28T10:49:04Z</time>
      </trkpt>
      <trkpt lat="43.78095" lon="3.77861">
        <ele>213.2</ele>
        <time>2015-05-28T10:49:18Z</time>
      </trkpt>
      <trkpt lat="43.7809" lon="3.77861">
        <ele>213.2</ele>
        <time>2015-05-28T10:49:22Z</time>
      </trkpt>
      <trkpt lat="43.78055" lon="3.7783">
        <ele>212.2</ele>
        <time>2015-05-28T10:50:02Z</time>
      </trkpt>
      <trkpt lat="43.78045" lon="3.77827">
        <ele>212.2</ele>
        <time>2015-05-28T10:50:11Z</time>
      </trkpt>
      <trkpt lat="43.78038" lon="3.7783">
        <ele>210.2</ele>
        <time>2015-05-28T10:50:19Z</time>
      </trkpt>
      <trkpt lat="43.78033" lon="3.77841">
        <ele>209.2</ele>
        <time>2015-05-28T10:50:28Z</time>
      </trkpt>
      <trkpt lat="43.77999" lon="3.77944">
        <ele>214.2</ele>
        <time>2015-05-28T10:51:49Z</time>
      </trkpt>
      <trkpt lat="43.77959" lon="3.77993">
        <ele>209.2</ele>
        <time>2015-05-28T10:52:42Z</time>
      </trkpt>
      <trkpt lat="43.77949" lon="3.77997">
        <ele>211.2</ele>
        <time>2015-05-28T10:52:53Z</time>
      </trkpt>
      <trkpt lat="43.77924" lon="3.78">
        <ele>215.2</ele>
        <time>2015-05-28T10:53:16Z</time>
      </trkpt>
      <trkpt lat="43.77919" lon="3.78004">
        <ele>215.2</ele>
        <time>2015-05-28T10:53:22Z</time>
      </trkpt>
      <trkpt lat="43.77916" lon="3.78007">
        <ele>215.2</ele>
        <time>2015-05-28T10:53:25Z</time>
      </trkpt>
      <trkpt lat="43.77909" lon="3.78027">
        <ele>217.2</ele>
        <time>2015-05-28T10:53:45Z</time>
      </trkpt>
      <trkpt lat="43.77901" lon="3.78038">
        <ele>217.2</ele>
        <time>2015-05-28T10:53:58Z</time>
      </trkpt>
      <trkpt lat="43.7789" lon="3.78062">
        <ele>220.2</ele>
        <time>2015-05-28T10:54:23Z</time>
      </trkpt>
      <trkpt lat="43.77886" lon="3.7809">
        <ele>221.2</ele>
        <time>2015-05-28T10:54:42Z</time>
      </trkpt>
      <trkpt lat="43.77886" lon="3.78109">
        <ele>216.2</ele>
        <time>2015-05-28T10:54:55Z</time>
      </trkpt>
      <trkpt lat="43.77885" lon="3.78124">
        <ele>215.2</ele>
        <time>2015-05-28T10:55:06Z</time>
      </trkpt>
      <trkpt lat="43.77883" lon="3.78137">
        <ele>215.2</ele>
        <time>2015-05-28T10:55:15Z</time>
      </trkpt>
      <trkpt lat="43.77879" lon="3.7815">
        <ele>218.2</ele>
        <time>2015-05-28T10:55:28Z</time>
      </trkpt>
      <trkpt lat="43.77882" lon="3.78173">
        <ele>219.2</ele>
        <time>2015-05-28T10:55:44Z</time>
      </trkpt>
      <trkpt lat="43.77881" lon="3.78195">
        <ele>221.2</ele>
        <time>2015-05-28T10:55:59Z</time>
      </trkpt>
      <trkpt lat="43.77891" lon="3.78222">
        <ele>222.2</ele>
        <time>2015-05-28T10:56:20Z</time>
      </trkpt>
      <trkpt lat="43.77894" lon="3.78237">
        <ele>224.2</ele>
        <time>2015-05-28T10:56:33Z</time>
      </trkpt>
      <trkpt lat="43.77894" lon="3.78243">
        <ele>225.2</ele>
        <time>2015-05-28T10:56:37Z</time>
      </trkpt>
      <trkpt lat="43.77888" lon="3.78259">
        <ele>228.2</ele>
        <time>2015-05-28T10:56:52Z</time>
      </trkpt>
      <trkpt lat="43.77888" lon="3.78283">
        <ele>227.2</ele>
        <time>2015-05-28T10:57:11Z</time>
      </trkpt>
      <trkpt lat="43.77898" lon="3.7832">
        <ele>228.2</ele>
        <time>2015-05-28T10:57:38Z</time>
      </trkpt>
      <trkpt lat="43.77899" lon="3.78343">
        <ele>230.2</ele>
        <time>2015-05-28T10:57:56Z</time>
      </trkpt>
      <trkpt lat="43.77904" lon="3.78371">
        <ele>231.2</ele>
        <time>2015-05-28T10:58:19Z</time>
      </trkpt>
      <trkpt lat="43.77904" lon="3.78383">
        <ele>232.2</ele>
        <time>2015-05-28T10:58:29Z</time>
      </trkpt>
      <trkpt lat="43.7791" lon="3.78407">
        <ele>233.2</ele>
        <time>2015-05-28T10:58:58Z</time>
      </trkpt>
      <trkpt lat="43.77908" lon="3.78419">
        <ele>235.2</ele>
        <time>2015-05-28T10:59:23Z</time>
      </trkpt>
      <trkpt lat="43.77908" lon="3.78438">
        <ele>237.2</ele>
        <time>2015-05-28T10:59:40Z</time>
      </trkpt>
      <trkpt lat="43.77903" lon="3.78459">
        <ele>238.2</ele>
        <time>2015-05-28T10:59:55Z</time>
      </trkpt>
      <trkpt lat="43.77903" lon="3.78464">
        <ele>238.2</ele>
        <time>2015-05-28T10:59:59Z</time>
      </trkpt>
      <trkpt lat="43.77907" lon="3.78485">
        <ele>239.2</ele>
        <time>2015-05-28T11:00:15Z</time>
      </trkpt>
      <trkpt lat="43.77916" lon="3.78503">
        <ele>241.2</ele>
        <time>2015-05-28T11:00:31Z</time>
      </trkpt>
      <trkpt lat="43.77925" lon="3.7854">
        <ele>241.2</ele>
        <time>2015-05-28T11:00:55Z</time>
      </trkpt>
      <trkpt lat="43.77926" lon="3.78587">
        <ele>240.2</ele>
        <time>2015-05-28T11:01:26Z</time>
      </trkpt>
      <trkpt lat="43.77923" lon="3.7861">
        <ele>240.2</ele>
        <time>2015-05-28T11:01:43Z</time>
      </trkpt>
      <trkpt lat="43.77928" lon="3.78644">
        <ele>240.2</ele>
        <time>2015-05-28T11:02:13Z</time>
      </trkpt>
      <trkpt lat="43.77928" lon="3.78666">
        <ele>240.2</ele>
        <time>2015-05-28T11:02:31Z</time>
      </trkpt>
      <trkpt lat="43.77938" lon="3.78699">
        <ele>241.2</ele>
        <time>2015-05-28T11:02:56Z</time>
      </trkpt>
      <trkpt lat="43.77961" lon="3.78741">
        <ele>239.2</ele>
        <time>2015-05-28T11:03:40Z</time>
      </trkpt>
      <trkpt lat="43.77963" lon="3.78747">
        <ele>238.2</ele>
        <time>2015-05-28T11:03:44Z</time>
      </trkpt>
      <trkpt lat="43.77956" lon="3.78787">
        <ele>237.2</ele>
        <time>2015-05-28T11:04:14Z</time>
      </trkpt>
      <trkpt lat="43.77954" lon="3.78816">
        <ele>231.2</ele>
        <time>2015-05-28T11:04:33Z</time>
      </trkpt>
      <trkpt lat="43.77957" lon="3.78846">
        <ele>232.2</ele>
        <time>2015-05-28T11:04:54Z</time>
      </trkpt>
      <trkpt lat="43.77959" lon="3.78863">
        <ele>236.2</ele>
        <time>2015-05-28T11:05:12Z</time>
      </trkpt>
      <trkpt lat="43.77963" lon="3.78874">
        <ele>233.2</ele>
        <time>2015-05-28T11:05:22Z</time>
      </trkpt>
      <trkpt lat="43.77964" lon="3.78887">
        <ele>228.2</ele>
        <time>2015-05-28T11:05:32Z</time>
      </trkpt>
      <trkpt lat="43.77967" lon="3.78899">
        <ele>229.2</ele>
        <time>2015-05-28T11:05:40Z</time>
      </trkpt>
      <trkpt lat="43.77967" lon="3.78908">
        <ele>228.2</ele>
        <time>2015-05-28T11:05:47Z</time>
      </trkpt>
      <trkpt lat="43.77979" lon="3.78949">
        <ele>235.2</ele>
        <time>2015-05-28T11:06:18Z</time>
      </trkpt>
      <trkpt lat="43.7798" lon="3.78966">
        <ele>237.2</ele>
        <time>2015-05-28T11:06:31Z</time>
      </trkpt>
      <trkpt lat="43.77984" lon="3.78977">
        <ele>238.2</ele>
        <time>2015-05-28T11:06:39Z</time>
      </trkpt>
      <trkpt lat="43.77991" lon="3.78985">
        <ele>239.2</ele>
        <time>2015-05-28T11:06:47Z</time>
      </trkpt>
      <trkpt lat="43.77997" lon="3.78996">
        <ele>239.2</ele>
        <time>2015-05-28T11:06:57Z</time>
      </trkpt>
      <trkpt lat="43.77999" lon="3.79002">
        <ele>240.2</ele>
        <time>2015-05-28T11:07:01Z</time>
      </trkpt>
      <trkpt lat="43.77997" lon="3.7904">
        <ele>236.2</ele>
        <time>2015-05-28T11:07:26Z</time>
      </trkpt>
      <trkpt lat="43.77997" lon="3.79076">
        <ele>238.2</ele>
        <time>2015-05-28T11:07:53Z</time>
      </trkpt>
      <trkpt lat="43.77999" lon="3.79086">
        <ele>239.2</ele>
        <time>2015-05-28T11:08:00Z</time>
      </trkpt>
      <trkpt lat="43.78005" lon="3.79096">
        <ele>240.2</ele>
        <time>2015-05-28T11:08:09Z</time>
      </trkpt>
      <trkpt lat="43.7801" lon="3.7912">
        <ele>241.2</ele>
        <time>2015-05-28T11:08:29Z</time>
      </trkpt>
      <trkpt lat="43.78016" lon="3.79138">
        <ele>241.2</ele>
        <time>2015-05-28T11:08:47Z</time>
      </trkpt>
      <trkpt lat="43.78019" lon="3.79152">
        <ele>242.2</ele>
        <time>2015-05-28T11:08:58Z</time>
      </trkpt>
      <trkpt lat="43.78021" lon="3.79193">
        <ele>243.2</ele>
        <time>2015-05-28T11:09:34Z</time>
      </trkpt>
      <trkpt lat="43.78031" lon="3.79273">
        <ele>245.2</ele>
        <time>2015-05-28T11:10:31Z</time>
      </trkpt>
      <trkpt lat="43.78032" lon="3.79294">
        <ele>245.2</ele>
        <time>2015-05-28T11:10:45Z</time>
      </trkpt>
      <trkpt lat="43.78029" lon="3.79313">
        <ele>246.2</ele>
        <time>2015-05-28T11:11:01Z</time>
      </trkpt>
      <trkpt lat="43.7803" lon="3.79347">
        <ele>247.2</ele>
        <time>2015-05-28T11:11:26Z</time>
      </trkpt>
      <trkpt lat="43.78044" lon="3.79419">
        <ele>248.2</ele>
        <time>2015-05-28T11:12:21Z</time>
      </trkpt>
      <trkpt lat="43.78037" lon="3.79424">
        <ele>250.2</ele>
        <time>2015-05-28T11:12:51Z</time>
      </trkpt>
      <trkpt lat="43.78035" lon="3.79428">
        <ele>248.2</ele>
        <time>2015-05-28T11:14:36Z</time>
      </trkpt>
      <trkpt lat="43.78032" lon="3.79431">
        <ele>247.2</ele>
        <time>2015-05-28T11:14:41Z</time>
      </trkpt>
      <trkpt lat="43.78019" lon="3.79455">
        <ele>253.2</ele>
        <time>2015-05-28T11:18:11Z</time>
      </trkpt>
      <trkpt lat="43.78018" lon="3.79454">
        <ele>251.2</ele>
        <time>2015-05-28T11:18:20Z</time>
      </trkpt>
      <trkpt lat="43.78019" lon="3.79456">
        <ele>249.2</ele>
        <time>2015-05-28T11:18:51Z</time>
      </trkpt>
      <trkpt lat="43.78017" lon="3.79455">
        <ele>249.2</ele>
        <time>2015-05-28T11:19:24Z</time>
      </trkpt>
      <trkpt lat="43.78016" lon="3.79456">
        <ele>250.2</ele>
        <time>2015-05-28T11:19:28Z</time>
      </trkpt>
      <trkpt lat="43.77992" lon="3.79482">
        <ele>253.2</ele>
        <time>2015-05-28T11:20:13Z</time>
      </trkpt>
      <trkpt lat="43.77982" lon="3.79496">
        <ele>255.2</ele>
        <time>2015-05-28T11:20:33Z</time>
      </trkpt>
      <trkpt lat="43.77959" lon="3.79519">
        <ele>262.2</ele>
        <time>2015-05-28T11:21:21Z</time>
      </trkpt>
      <trkpt lat="43.77948" lon="3.79534">
        <ele>266.2</ele>
        <time>2015-05-28T11:21:49Z</time>
      </trkpt>
      <trkpt lat="43.7793" lon="3.79547">
        <ele>271.3</ele>
        <time>2015-05-28T11:22:23Z</time>
      </trkpt>
      <trkpt lat="43.77927" lon="3.79544">
        <ele>273.3</ele>
        <time>2015-05-28T11:22:34Z</time>
      </trkpt>
      <trkpt lat="43.77926" lon="3.79541">
        <ele>274.3</ele>
        <time>2015-05-28T11:22:39Z</time>
      </trkpt>
      <trkpt lat="43.77922" lon="3.79521">
        <ele>278.3</ele>
        <time>2015-05-28T11:23:00Z</time>
      </trkpt>
      <trkpt lat="43.77918" lon="3.7952">
        <ele>280.3</ele>
        <time>2015-05-28T11:23:08Z</time>
      </trkpt>
      <trkpt lat="43.77909" lon="3.79526">
        <ele>283.3</ele>
        <time>2015-05-28T11:23:22Z</time>
      </trkpt>
      <trkpt lat="43.77896" lon="3.79539">
        <ele>287.3</ele>
        <time>2015-05-28T11:23:47Z</time>
      </trkpt>
      <trkpt lat="43.77887" lon="3.79541">
        <ele>290.3</ele>
        <time>2015-05-28T11:24:07Z</time>
      </trkpt>
      <trkpt lat="43.77882" lon="3.79545">
        <ele>290.3</ele>
        <time>2015-05-28T11:24:17Z</time>
      </trkpt>
      <trkpt lat="43.77865" lon="3.79564">
        <ele>297.3</ele>
        <time>2015-05-28T11:25:04Z</time>
      </trkpt>
      <trkpt lat="43.77858" lon="3.7956">
        <ele>299.3</ele>
        <time>2015-05-28T11:25:22Z</time>
      </trkpt>
      <trkpt lat="43.77855" lon="3.79551">
        <ele>301.3</ele>
        <time>2015-05-28T11:25:35Z</time>
      </trkpt>
      <trkpt lat="43.77856" lon="3.79543">
        <ele>304.3</ele>
        <time>2015-05-28T11:25:48Z</time>
      </trkpt>
      <trkpt lat="43.77869" lon="3.79525">
        <ele>308.3</ele>
        <time>2015-05-28T11:26:21Z</time>
      </trkpt>
      <trkpt lat="43.77871" lon="3.7952">
        <ele>308.3</ele>
        <time>2015-05-28T11:26:26Z</time>
      </trkpt>
      <trkpt lat="43.77876" lon="3.79507">
        <ele>306.3</ele>
        <time>2015-05-28T11:26:37Z</time>
      </trkpt>
      <trkpt lat="43.77878" lon="3.79491">
        <ele>308.3</ele>
        <time>2015-05-28T11:26:50Z</time>
      </trkpt>
      <trkpt lat="43.77878" lon="3.79446">
        <ele>308.3</ele>
        <time>2015-05-28T11:27:32Z</time>
      </trkpt>
      <trkpt lat="43.77874" lon="3.79399">
        <ele>311.3</ele>
        <time>2015-05-28T11:28:16Z</time>
      </trkpt>
      <trkpt lat="43.77868" lon="3.79373">
        <ele>312.2</ele>
        <time>2015-05-28T11:28:41Z</time>
      </trkpt>
      <trkpt lat="43.77875" lon="3.79306">
        <ele>321.2</ele>
        <time>2015-05-28T11:29:36Z</time>
      </trkpt>
      <trkpt lat="43.77873" lon="3.79281">
        <ele>321.2</ele>
        <time>2015-05-28T11:30:02Z</time>
      </trkpt>
      <trkpt lat="43.77866" lon="3.79247">
        <ele>323.2</ele>
        <time>2015-05-28T11:30:31Z</time>
      </trkpt>
      <trkpt lat="43.77857" lon="3.7918">
        <ele>323.2</ele>
        <time>2015-05-28T11:31:28Z</time>
      </trkpt>
      <trkpt lat="43.77854" lon="3.7917">
        <ele>322.2</ele>
        <time>2015-05-28T11:31:36Z</time>
      </trkpt>
      <trkpt lat="43.7784" lon="3.79139">
        <ele>324.2</ele>
        <time>2015-05-28T11:32:04Z</time>
      </trkpt>
      <trkpt lat="43.77829" lon="3.7912">
        <ele>324.2</ele>
        <time>2015-05-28T11:32:27Z</time>
      </trkpt>
      <trkpt lat="43.77823" lon="3.79104">
        <ele>323.2</ele>
        <time>2015-05-28T11:32:46Z</time>
      </trkpt>
      <trkpt lat="43.77788" lon="3.79055">
        <ele>323.2</ele>
        <time>2015-05-28T11:33:42Z</time>
      </trkpt>
      <trkpt lat="43.77776" lon="3.7903">
        <ele>324.2</ele>
        <time>2015-05-28T11:34:07Z</time>
      </trkpt>
      <trkpt lat="43.77767" lon="3.79023">
        <ele>325.2</ele>
        <time>2015-05-28T11:34:22Z</time>
      </trkpt>
      <trkpt lat="43.77762" lon="3.79016">
        <ele>325.2</ele>
        <time>2015-05-28T11:34:31Z</time>
      </trkpt>
      <trkpt lat="43.77752" lon="3.7898">
        <ele>330.2</ele>
        <time>2015-05-28T11:35:12Z</time>
      </trkpt>
      <trkpt lat="43.77751" lon="3.78968">
        <ele>330.2</ele>
        <time>2015-05-28T11:35:27Z</time>
      </trkpt>
      <trkpt lat="43.77752" lon="3.78964">
        <ele>329.2</ele>
        <time>2015-05-28T11:35:36Z</time>
      </trkpt>
      <trkpt lat="43.77752" lon="3.78956">
        <ele>331.2</ele>
        <time>2015-05-28T11:35:45Z</time>
      </trkpt>
      <trkpt lat="43.77749" lon="3.78935">
        <ele>332.2</ele>
        <time>2015-05-28T11:36:03Z</time>
      </trkpt>
      <trkpt lat="43.77742" lon="3.78904">
        <ele>332.2</ele>
        <time>2015-05-28T11:36:31Z</time>
      </trkpt>
      <trkpt lat="43.7774" lon="3.789">
        <ele>333.2</ele>
        <time>2015-05-28T11:36:36Z</time>
      </trkpt>
      <trkpt lat="43.77733" lon="3.78894">
        <ele>333.2</ele>
        <time>2015-05-28T11:36:46Z</time>
      </trkpt>
      <trkpt lat="43.77726" lon="3.78884">
        <ele>334.2</ele>
        <time>2015-05-28T11:37:02Z</time>
      </trkpt>
      <trkpt lat="43.77729" lon="3.78864">
        <ele>339.2</ele>
        <time>2015-05-28T11:38:16Z</time>
      </trkpt>
      <trkpt lat="43.77716" lon="3.78855">
        <ele>338.2</ele>
        <time>2015-05-28T11:38:45Z</time>
      </trkpt>
      <trkpt lat="43.77714" lon="3.78848">
        <ele>339.2</ele>
        <time>2015-05-28T11:38:58Z</time>
      </trkpt>
      <trkpt lat="43.77705" lon="3.78832">
        <ele>340.2</ele>
        <time>2015-05-28T11:39:20Z</time>
      </trkpt>
      <trkpt lat="43.77704" lon="3.78818">
        <ele>341.2</ele>
        <time>2015-05-28T11:39:39Z</time>
      </trkpt>
      <trkpt lat="43.777" lon="3.78819">
        <ele>342.2</ele>
        <time>2015-05-28T11:39:47Z</time>
      </trkpt>
      <trkpt lat="43.77698" lon="3.78818">
        <ele>342.2</ele>
        <time>2015-05-28T11:39:52Z</time>
      </trkpt>
      <trkpt lat="43.7769" lon="3.78799">
        <ele>345.2</ele>
        <time>2015-05-28T11:40:22Z</time>
      </trkpt>
      <trkpt lat="43.77684" lon="3.78791">
        <ele>347.2</ele>
        <time>2015-05-28T11:40:34Z</time>
      </trkpt>
      <trkpt lat="43.77682" lon="3.78783">
        <ele>347.2</ele>
        <time>2015-05-28T11:40:44Z</time>
      </trkpt>
      <trkpt lat="43.7768" lon="3.78764">
        <ele>351.2</ele>
        <time>2015-05-28T11:41:03Z</time>
      </trkpt>
      <trkpt lat="43.77678" lon="3.78764">
        <ele>352.2</ele>
        <time>2015-05-28T11:41:08Z</time>
      </trkpt>
      <trkpt lat="43.77675" lon="3.78768">
        <ele>353.2</ele>
        <time>2015-05-28T11:41:22Z</time>
      </trkpt>
      <trkpt lat="43.77673" lon="3.78766">
        <ele>354.2</ele>
        <time>2015-05-28T11:41:28Z</time>
      </trkpt>
      <trkpt lat="43.77673" lon="3.78758">
        <ele>356.2</ele>
        <time>2015-05-28T11:41:41Z</time>
      </trkpt>
      <trkpt lat="43.77671" lon="3.78758">
        <ele>356.2</ele>
        <time>2015-05-28T11:41:48Z</time>
      </trkpt>
      <trkpt lat="43.77669" lon="3.78762">
        <ele>358.2</ele>
        <time>2015-05-28T11:41:55Z</time>
      </trkpt>
      <trkpt lat="43.77668" lon="3.78761">
        <ele>359.2</ele>
        <time>2015-05-28T11:42:00Z</time>
      </trkpt>
      <trkpt lat="43.77668" lon="3.78752">
        <ele>359.2</ele>
        <time>2015-05-28T11:42:10Z</time>
      </trkpt>
      <trkpt lat="43.77668" lon="3.7875">
        <ele>360.2</ele>
        <time>2015-05-28T11:42:15Z</time>
      </trkpt>
      <trkpt lat="43.7767" lon="3.78748">
        <ele>363.2</ele>
        <time>2015-05-28T11:42:38Z</time>
      </trkpt>
      <trkpt lat="43.77669" lon="3.7875">
        <ele>365.2</ele>
        <time>2015-05-28T11:43:47Z</time>
      </trkpt>
      <trkpt lat="43.77671" lon="3.78748">
        <ele>365.2</ele>
        <time>2015-05-28T11:44:48Z</time>
      </trkpt>
      <trkpt lat="43.77672" lon="3.78727">
        <ele>365.2</ele>
        <time>2015-05-28T11:45:15Z</time>
      </trkpt>
      <trkpt lat="43.77668" lon="3.78712">
        <ele>366.2</ele>
        <time>2015-05-28T11:45:30Z</time>
      </trkpt>
      <trkpt lat="43.7766" lon="3.78704">
        <ele>367.2</ele>
        <time>2015-05-28T11:45:41Z</time>
      </trkpt>
      <trkpt lat="43.77656" lon="3.78697">
        <ele>368.2</ele>
        <time>2015-05-28T11:45:51Z</time>
      </trkpt>
      <trkpt lat="43.7765" lon="3.78699">
        <ele>368.2</ele>
        <time>2015-05-28T11:45:59Z</time>
      </trkpt>
      <trkpt lat="43.77646" lon="3.78698">
        <ele>368.2</ele>
        <time>2015-05-28T11:46:06Z</time>
      </trkpt>
      <trkpt lat="43.7764" lon="3.7868">
        <ele>369.2</ele>
        <time>2015-05-28T11:46:27Z</time>
      </trkpt>
      <trkpt lat="43.77638" lon="3.78679">
        <ele>370.2</ele>
        <time>2015-05-28T11:46:31Z</time>
      </trkpt>
      <trkpt lat="43.77635" lon="3.7868">
        <ele>370.2</ele>
        <time>2015-05-28T11:46:34Z</time>
      </trkpt>
      <trkpt lat="43.77632" lon="3.78688">
        <ele>370.2</ele>
        <time>2015-05-28T11:46:40Z</time>
      </trkpt>
      <trkpt lat="43.77631" lon="3.78718">
        <ele>371.2</ele>
        <time>2015-05-28T11:47:01Z</time>
      </trkpt>
      <trkpt lat="43.77628" lon="3.78726">
        <ele>372.2</ele>
        <time>2015-05-28T11:47:09Z</time>
      </trkpt>
      <trkpt lat="43.77623" lon="3.78729">
        <ele>373.2</ele>
        <time>2015-05-28T11:47:16Z</time>
      </trkpt>
      <trkpt lat="43.7761" lon="3.78731">
        <ele>373.2</ele>
        <time>2015-05-28T11:47:32Z</time>
      </trkpt>
      <trkpt lat="43.77602" lon="3.78729">
        <ele>375.2</ele>
        <time>2015-05-28T11:47:42Z</time>
      </trkpt>
      <trkpt lat="43.77595" lon="3.7873">
        <ele>377.2</ele>
        <time>2015-05-28T11:47:52Z</time>
      </trkpt>
      <trkpt lat="43.77587" lon="3.78723">
        <ele>377.2</ele>
        <time>2015-05-28T11:48:08Z</time>
      </trkpt>
      <trkpt lat="43.77578" lon="3.78704">
        <ele>378.2</ele>
        <time>2015-05-28T11:48:31Z</time>
      </trkpt>
      <trkpt lat="43.77572" lon="3.787">
        <ele>378.2</ele>
        <time>2015-05-28T11:48:40Z</time>
      </trkpt>
      <trkpt lat="43.77561" lon="3.787">
        <ele>378.3</ele>
        <time>2015-05-28T11:49:01Z</time>
      </trkpt>
      <trkpt lat="43.7755" lon="3.78686">
        <ele>378.3</ele>
        <time>2015-05-28T11:49:27Z</time>
      </trkpt>
      <trkpt lat="43.77532" lon="3.78679">
        <ele>376.3</ele>
        <time>2015-05-28T11:49:50Z</time>
      </trkpt>
      <trkpt lat="43.77529" lon="3.78682">
        <ele>376.3</ele>
        <time>2015-05-28T11:52:26Z</time>
      </trkpt>
      <trkpt lat="43.7753" lon="3.78678">
        <ele>374.3</ele>
        <time>2015-05-28T11:53:44Z</time>
      </trkpt>
      <trkpt lat="43.77528" lon="3.78674">
        <ele>374.3</ele>
        <time>2015-05-28T11:53:51Z</time>
      </trkpt>
      <trkpt lat="43.77523" lon="3.7867">
        <ele>374.3</ele>
        <time>2015-05-28T11:54:00Z</time>
      </trkpt>
      <trkpt lat="43.77505" lon="3.78644">
        <ele>376.3</ele>
        <time>2015-05-28T11:54:48Z</time>
      </trkpt>
      <trkpt lat="43.7749" lon="3.78635">
        <ele>372.3</ele>
        <time>2015-05-28T11:55:18Z</time>
      </trkpt>
      <trkpt lat="43.77477" lon="3.78623">
        <ele>370.3</ele>
        <time>2015-05-28T11:55:41Z</time>
      </trkpt>
      <trkpt lat="43.77463" lon="3.78616">
        <ele>369.3</ele>
        <time>2015-05-28T11:55:57Z</time>
      </trkpt>
      <trkpt lat="43.77441" lon="3.78609">
        <ele>367.3</ele>
        <time>2015-05-28T11:56:25Z</time>
      </trkpt>
      <trkpt lat="43.77423" lon="3.78609">
        <ele>366.3</ele>
        <time>2015-05-28T11:56:46Z</time>
      </trkpt>
      <trkpt lat="43.77418" lon="3.78611">
        <ele>366.3</ele>
        <time>2015-05-28T11:56:51Z</time>
      </trkpt>
      <trkpt lat="43.77405" lon="3.7862">
        <ele>365.3</ele>
        <time>2015-05-28T11:57:09Z</time>
      </trkpt>
      <trkpt lat="43.7739" lon="3.78623">
        <ele>364.3</ele>
        <time>2015-05-28T11:57:29Z</time>
      </trkpt>
      <trkpt lat="43.77376" lon="3.78629">
        <ele>362.3</ele>
        <time>2015-05-28T11:57:49Z</time>
      </trkpt>
      <trkpt lat="43.77361" lon="3.78637">
        <ele>359.3</ele>
        <time>2015-05-28T11:58:14Z</time>
      </trkpt>
      <trkpt lat="43.77355" lon="3.78648">
        <ele>357.3</ele>
        <time>2015-05-28T11:58:30Z</time>
      </trkpt>
      <trkpt lat="43.7735" lon="3.7865">
        <ele>356.3</ele>
        <time>2015-05-28T11:58:40Z</time>
      </trkpt>
      <trkpt lat="43.77349" lon="3.78664">
        <ele>353.3</ele>
        <time>2015-05-28T11:58:53Z</time>
      </trkpt>
      <trkpt lat="43.77337" lon="3.78702">
        <ele>350.3</ele>
        <time>2015-05-28T11:59:46Z</time>
      </trkpt>
      <trkpt lat="43.77325" lon="3.78721">
        <ele>349.3</ele>
        <time>2015-05-28T12:00:08Z</time>
      </trkpt>
      <trkpt lat="43.77323" lon="3.7873">
        <ele>350.3</ele>
        <time>2015-05-28T12:00:17Z</time>
      </trkpt>
      <trkpt lat="43.77318" lon="3.78738">
        <ele>348.3</ele>
        <time>2015-05-28T12:00:28Z</time>
      </trkpt>
      <trkpt lat="43.77304" lon="3.78753">
        <ele>346.3</ele>
        <time>2015-05-28T12:00:55Z</time>
      </trkpt>
      <trkpt lat="43.77299" lon="3.78774">
        <ele>342.3</ele>
        <time>2015-05-28T12:01:18Z</time>
      </trkpt>
      <trkpt lat="43.77293" lon="3.78787">
        <ele>340.3</ele>
        <time>2015-05-28T12:01:33Z</time>
      </trkpt>
      <trkpt lat="43.7728" lon="3.7881">
        <ele>339.3</ele>
        <time>2015-05-28T12:01:57Z</time>
      </trkpt>
      <trkpt lat="43.77275" lon="3.78815">
        <ele>338.3</ele>
        <time>2015-05-28T12:02:04Z</time>
      </trkpt>
      <trkpt lat="43.77262" lon="3.78846">
        <ele>335.3</ele>
        <time>2015-05-28T12:02:37Z</time>
      </trkpt>
      <trkpt lat="43.77259" lon="3.78858">
        <ele>334.3</ele>
        <time>2015-05-28T12:02:57Z</time>
      </trkpt>
      <trkpt lat="43.77254" lon="3.78871">
        <ele>333.3</ele>
        <time>2015-05-28T12:03:08Z</time>
      </trkpt>
      <trkpt lat="43.77235" lon="3.78901">
        <ele>332.3</ele>
        <time>2015-05-28T12:03:46Z</time>
      </trkpt>
      <trkpt lat="43.77228" lon="3.78909">
        <ele>332.3</ele>
        <time>2015-05-28T12:04:07Z</time>
      </trkpt>
      <trkpt lat="43.77224" lon="3.78911">
        <ele>335.3</ele>
        <time>2015-05-28T12:04:30Z</time>
      </trkpt>
      <trkpt lat="43.77224" lon="3.78916">
        <ele>334.3</ele>
        <time>2015-05-28T12:04:52Z</time>
      </trkpt>
      <trkpt lat="43.77221" lon="3.78916">
        <ele>332.3</ele>
        <time>2015-05-28T12:06:01Z</time>
      </trkpt>
      <trkpt lat="43.77215" lon="3.7892">
        <ele>332.3</ele>
        <time>2015-05-28T12:06:10Z</time>
      </trkpt>
      <trkpt lat="43.77192" lon="3.78931">
        <ele>331.3</ele>
        <time>2015-05-28T12:06:31Z</time>
      </trkpt>
      <trkpt lat="43.77171" lon="3.78939">
        <ele>327.3</ele>
        <time>2015-05-28T12:06:50Z</time>
      </trkpt>
      <trkpt lat="43.77159" lon="3.7894">
        <ele>326.3</ele>
        <time>2015-05-28T12:07:00Z</time>
      </trkpt>
      <trkpt lat="43.77146" lon="3.78937">
        <ele>326.3</ele>
        <time>2015-05-28T12:07:13Z</time>
      </trkpt>
      <trkpt lat="43.77135" lon="3.78932">
        <ele>326.3</ele>
        <time>2015-05-28T12:07:24Z</time>
      </trkpt>
      <trkpt lat="43.77124" lon="3.7892">
        <ele>326.3</ele>
        <time>2015-05-28T12:07:37Z</time>
      </trkpt>
      <trkpt lat="43.7711" lon="3.78901">
        <ele>327.3</ele>
        <time>2015-05-28T12:07:59Z</time>
      </trkpt>
      <trkpt lat="43.77092" lon="3.78886">
        <ele>326.3</ele>
        <time>2015-05-28T12:08:23Z</time>
      </trkpt>
      <trkpt lat="43.7708" lon="3.78879">
        <ele>324.3</ele>
        <time>2015-05-28T12:08:36Z</time>
      </trkpt>
      <trkpt lat="43.77059" lon="3.78871">
        <ele>319.3</ele>
        <time>2015-05-28T12:08:56Z</time>
      </trkpt>
      <trkpt lat="43.77054" lon="3.78868">
        <ele>318.3</ele>
        <time>2015-05-28T12:09:01Z</time>
      </trkpt>
      <trkpt lat="43.77042" lon="3.78847">
        <ele>312.3</ele>
        <time>2015-05-28T12:09:20Z</time>
      </trkpt>
      <trkpt lat="43.77032" lon="3.78833">
        <ele>311.3</ele>
        <time>2015-05-28T12:09:37Z</time>
      </trkpt>
      <trkpt lat="43.77008" lon="3.78815">
        <ele>309.3</ele>
        <time>2015-05-28T12:10:03Z</time>
      </trkpt>
      <trkpt lat="43.76979" lon="3.78781">
        <ele>306.3</ele>
        <time>2015-05-28T12:10:44Z</time>
      </trkpt>
      <trkpt lat="43.76973" lon="3.78779">
        <ele>306.3</ele>
        <time>2015-05-28T12:10:52Z</time>
      </trkpt>
      <trkpt lat="43.76968" lon="3.78779">
        <ele>307.3</ele>
        <time>2015-05-28T12:11:00Z</time>
      </trkpt>
      <trkpt lat="43.76964" lon="3.78782">
        <ele>307.3</ele>
        <time>2015-05-28T12:11:06Z</time>
      </trkpt>
      <trkpt lat="43.76961" lon="3.78789">
        <ele>305.3</ele>
        <time>2015-05-28T12:11:17Z</time>
      </trkpt>
      <trkpt lat="43.76945" lon="3.78773">
        <ele>303.3</ele>
        <time>2015-05-28T12:17:04Z</time>
      </trkpt>
      <trkpt lat="43.76947" lon="3.78769">
        <ele>303.3</ele>
        <time>2015-05-28T12:17:07Z</time>
      </trkpt>
      <trkpt lat="43.76949" lon="3.78758">
        <ele>303.3</ele>
        <time>2015-05-28T12:17:13Z</time>
      </trkpt>
      <trkpt lat="43.76948" lon="3.78746">
        <ele>303.3</ele>
        <time>2015-05-28T12:17:21Z</time>
      </trkpt>
      <trkpt lat="43.76947" lon="3.78743">
        <ele>296.3</ele>
        <time>2015-05-28T12:17:24Z</time>
      </trkpt>
      <trkpt lat="43.76944" lon="3.78741">
        <ele>291.3</ele>
        <time>2015-05-28T12:17:26Z</time>
      </trkpt>
      <trkpt lat="43.76938" lon="3.78727">
        <ele>286.3</ele>
        <time>2015-05-28T12:17:38Z</time>
      </trkpt>
      <trkpt lat="43.76934" lon="3.78709">
        <ele>289.3</ele>
        <time>2015-05-28T12:17:52Z</time>
      </trkpt>
      <trkpt lat="43.76927" lon="3.78693">
        <ele>291.3</ele>
        <time>2015-05-28T12:18:04Z</time>
      </trkpt>
      <trkpt lat="43.76888" lon="3.78621">
        <ele>299.3</ele>
        <time>2015-05-28T12:19:00Z</time>
      </trkpt>
      <trkpt lat="43.76885" lon="3.78611">
        <ele>296.3</ele>
        <time>2015-05-28T12:19:06Z</time>
      </trkpt>
      <trkpt lat="43.76885" lon="3.78596">
        <ele>293.3</ele>
        <time>2015-05-28T12:19:16Z</time>
      </trkpt>
      <trkpt lat="43.76894" lon="3.78576">
        <ele>293.3</ele>
        <time>2015-05-28T12:19:31Z</time>
      </trkpt>
      <trkpt lat="43.76903" lon="3.78542">
        <ele>292.3</ele>
        <time>2015-05-28T12:19:52Z</time>
      </trkpt>
      <trkpt lat="43.76917" lon="3.78502">
        <ele>292.3</ele>
        <time>2015-05-28T12:20:20Z</time>
      </trkpt>
      <trkpt lat="43.76924" lon="3.78464">
        <ele>294.3</ele>
        <time>2015-05-28T12:20:43Z</time>
      </trkpt>
      <trkpt lat="43.76932" lon="3.78436">
        <ele>294.3</ele>
        <time>2015-05-28T12:21:01Z</time>
      </trkpt>
      <trkpt lat="43.76937" lon="3.78423">
        <ele>294.3</ele>
        <time>2015-05-28T12:21:10Z</time>
      </trkpt>
      <trkpt lat="43.76942" lon="3.78416">
        <ele>294.3</ele>
        <time>2015-05-28T12:21:17Z</time>
      </trkpt>
      <trkpt lat="43.76946" lon="3.78395">
        <ele>294.3</ele>
        <time>2015-05-28T12:21:31Z</time>
      </trkpt>
      <trkpt lat="43.76964" lon="3.78341">
        <ele>296.3</ele>
        <time>2015-05-28T12:22:08Z</time>
      </trkpt>
      <trkpt lat="43.76973" lon="3.78302">
        <ele>295.3</ele>
        <time>2015-05-28T12:22:31Z</time>
      </trkpt>
      <trkpt lat="43.76986" lon="3.78266">
        <ele>296.3</ele>
        <time>2015-05-28T12:22:56Z</time>
      </trkpt>
      <trkpt lat="43.77" lon="3.78218">
        <ele>297.3</ele>
        <time>2015-05-28T12:23:27Z</time>
      </trkpt>
      <trkpt lat="43.77008" lon="3.782">
        <ele>297.3</ele>
        <time>2015-05-28T12:23:41Z</time>
      </trkpt>
      <trkpt lat="43.77015" lon="3.78177">
        <ele>298.3</ele>
        <time>2015-05-28T12:23:56Z</time>
      </trkpt>
      <trkpt lat="43.77067" lon="3.78026">
        <ele>304.3</ele>
        <time>2015-05-28T12:25:44Z</time>
      </trkpt>
      <trkpt lat="43.77084" lon="3.77998">
        <ele>305.3</ele>
        <time>2015-05-28T12:26:13Z</time>
      </trkpt>
      <trkpt lat="43.77091" lon="3.77981">
        <ele>308.3</ele>
        <time>2015-05-28T12:26:30Z</time>
      </trkpt>
      <trkpt lat="43.77104" lon="3.77964">
        <ele>311.3</ele>
        <time>2015-05-28T12:26:49Z</time>
      </trkpt>
      <trkpt lat="43.77106" lon="3.77957">
        <ele>312.3</ele>
        <time>2015-05-28T12:26:54Z</time>
      </trkpt>
      <trkpt lat="43.77109" lon="3.77911">
        <ele>314.3</ele>
        <time>2015-05-28T12:27:30Z</time>
      </trkpt>
      <trkpt lat="43.77113" lon="3.77875">
        <ele>316.3</ele>
        <time>2015-05-28T12:27:54Z</time>
      </trkpt>
      <trkpt lat="43.77116" lon="3.77869">
        <ele>317.3</ele>
        <time>2015-05-28T12:27:59Z</time>
      </trkpt>
      <trkpt lat="43.77134" lon="3.77838">
        <ele>319.2</ele>
        <time>2015-05-28T12:28:26Z</time>
      </trkpt>
      <trkpt lat="43.77137" lon="3.77829">
        <ele>320.2</ele>
        <time>2015-05-28T12:28:32Z</time>
      </trkpt>
      <trkpt lat="43.77135" lon="3.77803">
        <ele>321.2</ele>
        <time>2015-05-28T12:28:48Z</time>
      </trkpt>
      <trkpt lat="43.77135" lon="3.77781">
        <ele>322.2</ele>
        <time>2015-05-28T12:29:02Z</time>
      </trkpt>
      <trkpt lat="43.77129" lon="3.7775">
        <ele>324.2</ele>
        <time>2015-05-28T12:29:26Z</time>
      </trkpt>
      <trkpt lat="43.7713" lon="3.77736">
        <ele>325.2</ele>
        <time>2015-05-28T12:29:37Z</time>
      </trkpt>
      <trkpt lat="43.77142" lon="3.77707">
        <ele>326.2</ele>
        <time>2015-05-28T12:29:58Z</time>
      </trkpt>
      <trkpt lat="43.77146" lon="3.77674">
        <ele>329.2</ele>
        <time>2015-05-28T12:30:19Z</time>
      </trkpt>
      <trkpt lat="43.77152" lon="3.77642">
        <ele>329.2</ele>
        <time>2015-05-28T12:30:41Z</time>
      </trkpt>
      <trkpt lat="43.77157" lon="3.77636">
        <ele>329.2</ele>
        <time>2015-05-28T12:30:48Z</time>
      </trkpt>
      <trkpt lat="43.7717" lon="3.77631">
        <ele>330.2</ele>
        <time>2015-05-28T12:30:59Z</time>
      </trkpt>
      <trkpt lat="43.77174" lon="3.77628">
        <ele>331.2</ele>
        <time>2015-05-28T12:31:04Z</time>
      </trkpt>
      <trkpt lat="43.77176" lon="3.77624">
        <ele>332.2</ele>
        <time>2015-05-28T12:45:01Z</time>
      </trkpt>
      <trkpt lat="43.77181" lon="3.77607">
        <ele>333.2</ele>
        <time>2015-05-28T12:45:15Z</time>
      </trkpt>
      <trkpt lat="43.77181" lon="3.77594">
        <ele>333.2</ele>
        <time>2015-05-28T12:45:27Z</time>
      </trkpt>
      <trkpt lat="43.77171" lon="3.77557">
        <ele>336.2</ele>
        <time>2015-05-28T12:46:02Z</time>
      </trkpt>
      <trkpt lat="43.77167" lon="3.7753">
        <ele>337.2</ele>
        <time>2015-05-28T12:46:25Z</time>
      </trkpt>
      <trkpt lat="43.7717" lon="3.77499">
        <ele>339.2</ele>
        <time>2015-05-28T12:46:51Z</time>
      </trkpt>
      <trkpt lat="43.7718" lon="3.77455">
        <ele>346.2</ele>
        <time>2015-05-28T12:47:35Z</time>
      </trkpt>
      <trkpt lat="43.77177" lon="3.77457">
        <ele>356.2</ele>
        <time>2015-05-28T12:53:36Z</time>
      </trkpt>
      <trkpt lat="43.77176" lon="3.7746">
        <ele>356.2</ele>
        <time>2015-05-28T12:53:40Z</time>
      </trkpt>
      <trkpt lat="43.77173" lon="3.77478">
        <ele>357.2</ele>
        <time>2015-05-28T12:53:56Z</time>
      </trkpt>
      <trkpt lat="43.77169" lon="3.77492">
        <ele>356.2</ele>
        <time>2015-05-28T12:54:10Z</time>
      </trkpt>
      <trkpt lat="43.77165" lon="3.7751">
        <ele>357.2</ele>
        <time>2015-05-28T12:54:25Z</time>
      </trkpt>
      <trkpt lat="43.77162" lon="3.77532">
        <ele>357.2</ele>
        <time>2015-05-28T12:54:41Z</time>
      </trkpt>
      <trkpt lat="43.77164" lon="3.77556">
        <ele>355.2</ele>
        <time>2015-05-28T12:54:57Z</time>
      </trkpt>
      <trkpt lat="43.77172" lon="3.77586">
        <ele>351.2</ele>
        <time>2015-05-28T12:55:21Z</time>
      </trkpt>
      <trkpt lat="43.77174" lon="3.77599">
        <ele>350.2</ele>
        <time>2015-05-28T12:55:30Z</time>
      </trkpt>
      <trkpt lat="43.77174" lon="3.77606">
        <ele>350.2</ele>
        <time>2015-05-28T12:55:35Z</time>
      </trkpt>
      <trkpt lat="43.7717" lon="3.77619">
        <ele>350.2</ele>
        <time>2015-05-28T12:55:47Z</time>
      </trkpt>
      <trkpt lat="43.7717" lon="3.77622">
        <ele>348.2</ele>
        <time>2015-05-28T12:56:17Z</time>
      </trkpt>
      <trkpt lat="43.77178" lon="3.77621">
        <ele>340.2</ele>
        <time>2015-05-28T12:57:17Z</time>
      </trkpt>
      <trkpt lat="43.77183" lon="3.77619">
        <ele>340.2</ele>
        <time>2015-05-28T12:57:20Z</time>
      </trkpt>
      <trkpt lat="43.7719" lon="3.77611">
        <ele>340.2</ele>
        <time>2015-05-28T12:57:26Z</time>
      </trkpt>
      <trkpt lat="43.77195" lon="3.77602">
        <ele>340.2</ele>
        <time>2015-05-28T12:57:34Z</time>
      </trkpt>
      <trkpt lat="43.77199" lon="3.77559">
        <ele>338.2</ele>
        <time>2015-05-28T12:58:00Z</time>
      </trkpt>
      <trkpt lat="43.77214" lon="3.7753">
        <ele>338.2</ele>
        <time>2015-05-28T12:58:25Z</time>
      </trkpt>
      <trkpt lat="43.77225" lon="3.77521">
        <ele>340.2</ele>
        <time>2015-05-28T12:58:38Z</time>
      </trkpt>
      <trkpt lat="43.77238" lon="3.77506">
        <ele>344.2</ele>
        <time>2015-05-28T12:59:25Z</time>
      </trkpt>
      <trkpt lat="43.77254" lon="3.77511">
        <ele>342.2</ele>
        <time>2015-05-28T13:00:01Z</time>
      </trkpt>
      <trkpt lat="43.77265" lon="3.77512">
        <ele>340.2</ele>
        <time>2015-05-28T13:00:13Z</time>
      </trkpt>
      <trkpt lat="43.77275" lon="3.7751">
        <ele>339.2</ele>
        <time>2015-05-28T13:00:24Z</time>
      </trkpt>
      <trkpt lat="43.77285" lon="3.77501">
        <ele>340.2</ele>
        <time>2015-05-28T13:00:36Z</time>
      </trkpt>
      <trkpt lat="43.77297" lon="3.77475">
        <ele>342.2</ele>
        <time>2015-05-28T13:00:59Z</time>
      </trkpt>
      <trkpt lat="43.7731" lon="3.77459">
        <ele>343.2</ele>
        <time>2015-05-28T13:01:21Z</time>
      </trkpt>
      <trkpt lat="43.77344" lon="3.77397">
        <ele>344.2</ele>
        <time>2015-05-28T13:02:32Z</time>
      </trkpt>
      <trkpt lat="43.77352" lon="3.7739">
        <ele>344.2</ele>
        <time>2015-05-28T13:02:42Z</time>
      </trkpt>
      <trkpt lat="43.77362" lon="3.77385">
        <ele>344.2</ele>
        <time>2015-05-28T13:02:52Z</time>
      </trkpt>
      <trkpt lat="43.77366" lon="3.77384">
        <ele>344.2</ele>
        <time>2015-05-28T13:02:57Z</time>
      </trkpt>
      <trkpt lat="43.77379" lon="3.77384">
        <ele>344.2</ele>
        <time>2015-05-28T13:03:09Z</time>
      </trkpt>
      <trkpt lat="43.77397" lon="3.77378">
        <ele>340.2</ele>
        <time>2015-05-28T13:03:26Z</time>
      </trkpt>
      <trkpt lat="43.774" lon="3.77376">
        <ele>339.2</ele>
        <time>2015-05-28T13:03:29Z</time>
      </trkpt>
      <trkpt lat="43.77418" lon="3.77349">
        <ele>336.2</ele>
        <time>2015-05-28T13:03:55Z</time>
      </trkpt>
      <trkpt lat="43.77428" lon="3.77312">
        <ele>330.2</ele>
        <time>2015-05-28T13:04:24Z</time>
      </trkpt>
      <trkpt lat="43.77442" lon="3.77295">
        <ele>329.2</ele>
        <time>2015-05-28T13:04:43Z</time>
      </trkpt>
      <trkpt lat="43.77445" lon="3.77288">
        <ele>324.2</ele>
        <time>2015-05-28T13:04:50Z</time>
      </trkpt>
      <trkpt lat="43.77452" lon="3.7726">
        <ele>322.2</ele>
        <time>2015-05-28T13:05:09Z</time>
      </trkpt>
      <trkpt lat="43.77462" lon="3.77228">
        <ele>326.2</ele>
        <time>2015-05-28T13:05:34Z</time>
      </trkpt>
      <trkpt lat="43.77463" lon="3.77205">
        <ele>326.2</ele>
        <time>2015-05-28T13:05:47Z</time>
      </trkpt>
      <trkpt lat="43.77461" lon="3.77185">
        <ele>327.2</ele>
        <time>2015-05-28T13:06:00Z</time>
      </trkpt>
      <trkpt lat="43.77467" lon="3.77141">
        <ele>329.2</ele>
        <time>2015-05-28T13:06:38Z</time>
      </trkpt>
      <trkpt lat="43.77467" lon="3.77115">
        <ele>328.2</ele>
        <time>2015-05-28T13:06:57Z</time>
      </trkpt>
      <trkpt lat="43.77458" lon="3.77095">
        <ele>328.2</ele>
        <time>2015-05-28T13:07:14Z</time>
      </trkpt>
      <trkpt lat="43.77459" lon="3.7707">
        <ele>329.2</ele>
        <time>2015-05-28T13:07:31Z</time>
      </trkpt>
      <trkpt lat="43.77457" lon="3.77047">
        <ele>328.2</ele>
        <time>2015-05-28T13:07:45Z</time>
      </trkpt>
      <trkpt lat="43.77459" lon="3.77026">
        <ele>327.2</ele>
        <time>2015-05-28T13:08:00Z</time>
      </trkpt>
      <trkpt lat="43.77457" lon="3.76999">
        <ele>328.2</ele>
        <time>2015-05-28T13:08:19Z</time>
      </trkpt>
      <trkpt lat="43.77459" lon="3.76986">
        <ele>328.2</ele>
        <time>2015-05-28T13:08:31Z</time>
      </trkpt>
      <trkpt lat="43.77459" lon="3.76969">
        <ele>325.2</ele>
        <time>2015-05-28T13:08:53Z</time>
      </trkpt>
      <trkpt lat="43.77455" lon="3.76937">
        <ele>324.2</ele>
        <time>2015-05-28T13:09:21Z</time>
      </trkpt>
      <trkpt lat="43.77457" lon="3.76907">
        <ele>322.2</ele>
        <time>2015-05-28T13:09:48Z</time>
      </trkpt>
      <trkpt lat="43.77487" lon="3.76671">
        <ele>267.2</ele>
        <time>2015-05-28T13:13:49Z</time>
      </trkpt>
      <trkpt lat="43.77486" lon="3.76666">
        <ele>270.2</ele>
        <time>2015-05-28T13:13:53Z</time>
      </trkpt>
      <trkpt lat="43.77487" lon="3.76664">
        <ele>271.2</ele>
        <time>2015-05-28T13:13:56Z</time>
      </trkpt>
      <trkpt lat="43.77486" lon="3.76661">
        <ele>278.2</ele>
        <time>2015-05-28T13:14:10Z</time>
      </trkpt>
      <trkpt lat="43.77501" lon="3.76624">
        <ele>281.2</ele>
        <time>2015-05-28T13:14:39Z</time>
      </trkpt>
      <trkpt lat="43.77502" lon="3.76619">
        <ele>282.2</ele>
        <time>2015-05-28T13:14:43Z</time>
      </trkpt>
      <trkpt lat="43.77493" lon="3.76587">
        <ele>284.2</ele>
        <time>2015-05-28T13:15:03Z</time>
      </trkpt>
      <trkpt lat="43.77484" lon="3.7657">
        <ele>285.2</ele>
        <time>2015-05-28T13:15:12Z</time>
      </trkpt>
      <trkpt lat="43.77474" lon="3.76547">
        <ele>285.2</ele>
        <time>2015-05-28T13:15:25Z</time>
      </trkpt>
      <trkpt lat="43.77453" lon="3.76506">
        <ele>286.2</ele>
        <time>2015-05-28T13:15:48Z</time>
      </trkpt>
      <trkpt lat="43.7745" lon="3.76498">
        <ele>287.2</ele>
        <time>2015-05-28T13:15:52Z</time>
      </trkpt>
      <trkpt lat="43.77443" lon="3.76454">
        <ele>288.2</ele>
        <time>2015-05-28T13:16:22Z</time>
      </trkpt>
      <trkpt lat="43.77439" lon="3.76408">
        <ele>293.2</ele>
        <time>2015-05-28T13:16:50Z</time>
      </trkpt>
      <trkpt lat="43.7744" lon="3.76401">
        <ele>293.2</ele>
        <time>2015-05-28T13:16:54Z</time>
      </trkpt>
      <trkpt lat="43.77443" lon="3.76394">
        <ele>294.2</ele>
        <time>2015-05-28T13:16:59Z</time>
      </trkpt>
      <trkpt lat="43.77461" lon="3.76372">
        <ele>297.2</ele>
        <time>2015-05-28T13:17:21Z</time>
      </trkpt>
      <trkpt lat="43.77473" lon="3.76347">
        <ele>297.2</ele>
        <time>2015-05-28T13:17:36Z</time>
      </trkpt>
      <trkpt lat="43.77475" lon="3.7633">
        <ele>299.2</ele>
        <time>2015-05-28T13:17:46Z</time>
      </trkpt>
      <trkpt lat="43.77474" lon="3.76316">
        <ele>298.2</ele>
        <time>2015-05-28T13:17:56Z</time>
      </trkpt>
      <trkpt lat="43.77472" lon="3.76314">
        <ele>300.2</ele>
        <time>2015-05-28T13:18:13Z</time>
      </trkpt>
      <trkpt lat="43.77476" lon="3.76316">
        <ele>299.2</ele>
        <time>2015-05-28T13:19:00Z</time>
      </trkpt>
      <trkpt lat="43.77481" lon="3.76298">
        <ele>299.2</ele>
        <time>2015-05-28T13:19:28Z</time>
      </trkpt>
      <trkpt lat="43.77487" lon="3.76273">
        <ele>300.2</ele>
        <time>2015-05-28T13:19:48Z</time>
      </trkpt>
      <trkpt lat="43.7749" lon="3.76246">
        <ele>297.2</ele>
        <time>2015-05-28T13:20:04Z</time>
      </trkpt>
      <trkpt lat="43.77483" lon="3.762">
        <ele>297.2</ele>
        <time>2015-05-28T13:20:37Z</time>
      </trkpt>
      <trkpt lat="43.77482" lon="3.76164">
        <ele>299.2</ele>
        <time>2015-05-28T13:21:03Z</time>
      </trkpt>
      <trkpt lat="43.77481" lon="3.7615">
        <ele>299.2</ele>
        <time>2015-05-28T13:21:11Z</time>
      </trkpt>
      <trkpt lat="43.77477" lon="3.76139">
        <ele>300.2</ele>
        <time>2015-05-28T13:21:18Z</time>
      </trkpt>
      <trkpt lat="43.77464" lon="3.76119">
        <ele>299.2</ele>
        <time>2015-05-28T13:21:36Z</time>
      </trkpt>
      <trkpt lat="43.77461" lon="3.76106">
        <ele>300.2</ele>
        <time>2015-05-28T13:21:45Z</time>
      </trkpt>
      <trkpt lat="43.77461" lon="3.76098">
        <ele>300.2</ele>
        <time>2015-05-28T13:21:50Z</time>
      </trkpt>
      <trkpt lat="43.77473" lon="3.76065">
        <ele>302.2</ele>
        <time>2015-05-28T13:22:17Z</time>
      </trkpt>
      <trkpt lat="43.77477" lon="3.76046">
        <ele>303.2</ele>
        <time>2015-05-28T13:22:31Z</time>
      </trkpt>
      <trkpt lat="43.77476" lon="3.76017">
        <ele>303.2</ele>
        <time>2015-05-28T13:22:49Z</time>
      </trkpt>
      <trkpt lat="43.77477" lon="3.76005">
        <ele>302.2</ele>
        <time>2015-05-28T13:22:56Z</time>
      </trkpt>
      <trkpt lat="43.77482" lon="3.75984">
        <ele>303.2</ele>
        <time>2015-05-28T13:23:13Z</time>
      </trkpt>
      <trkpt lat="43.77485" lon="3.75944">
        <ele>300.2</ele>
        <time>2015-05-28T13:23:39Z</time>
      </trkpt>
      <trkpt lat="43.77485" lon="3.75909">
        <ele>301.2</ele>
        <time>2015-05-28T13:24:05Z</time>
      </trkpt>
      <trkpt lat="43.77482" lon="3.75899">
        <ele>300.2</ele>
        <time>2015-05-28T13:24:12Z</time>
      </trkpt>
      <trkpt lat="43.77476" lon="3.75888">
        <ele>301.2</ele>
        <time>2015-05-28T13:24:19Z</time>
      </trkpt>
      <trkpt lat="43.77472" lon="3.75883">
        <ele>300.2</ele>
        <time>2015-05-28T13:24:23Z</time>
      </trkpt>
      <trkpt lat="43.77456" lon="3.75872">
        <ele>299.2</ele>
        <time>2015-05-28T13:24:37Z</time>
      </trkpt>
      <trkpt lat="43.77453" lon="3.75864">
        <ele>298.2</ele>
        <time>2015-05-28T13:24:42Z</time>
      </trkpt>
      <trkpt lat="43.77452" lon="3.75852">
        <ele>299.2</ele>
        <time>2015-05-28T13:24:49Z</time>
      </trkpt>
      <trkpt lat="43.77455" lon="3.75825">
        <ele>299.2</ele>
        <time>2015-05-28T13:25:07Z</time>
      </trkpt>
      <trkpt lat="43.77454" lon="3.75779">
        <ele>297.2</ele>
        <time>2015-05-28T13:25:34Z</time>
      </trkpt>
      <trkpt lat="43.77449" lon="3.75752">
        <ele>296.2</ele>
        <time>2015-05-28T13:25:50Z</time>
      </trkpt>
      <trkpt lat="43.77449" lon="3.75742">
        <ele>297.2</ele>
        <time>2015-05-28T13:25:56Z</time>
      </trkpt>
      <trkpt lat="43.77452" lon="3.7573">
        <ele>296.2</ele>
        <time>2015-05-28T13:26:04Z</time>
      </trkpt>
      <trkpt lat="43.77462" lon="3.75714">
        <ele>296.2</ele>
        <time>2015-05-28T13:26:19Z</time>
      </trkpt>
      <trkpt lat="43.77469" lon="3.75709">
        <ele>296.2</ele>
        <time>2015-05-28T13:26:28Z</time>
      </trkpt>
      <trkpt lat="43.77474" lon="3.7571">
        <ele>296.2</ele>
        <time>2015-05-28T13:26:32Z</time>
      </trkpt>
      <trkpt lat="43.77486" lon="3.75719">
        <ele>295.2</ele>
        <time>2015-05-28T13:26:45Z</time>
      </trkpt>
      <trkpt lat="43.77494" lon="3.75722">
        <ele>295.2</ele>
        <time>2015-05-28T13:26:51Z</time>
      </trkpt>
      <trkpt lat="43.77505" lon="3.7572">
        <ele>293.2</ele>
        <time>2015-05-28T13:27:01Z</time>
      </trkpt>
      <trkpt lat="43.77514" lon="3.75712">
        <ele>290.2</ele>
        <time>2015-05-28T13:27:09Z</time>
      </trkpt>
      <trkpt lat="43.77523" lon="3.75692">
        <ele>290.2</ele>
        <time>2015-05-28T13:27:25Z</time>
      </trkpt>
      <trkpt lat="43.77529" lon="3.75645">
        <ele>289.2</ele>
        <time>2015-05-28T13:27:54Z</time>
      </trkpt>
      <trkpt lat="43.77541" lon="3.7559">
        <ele>288.2</ele>
        <time>2015-05-28T13:28:29Z</time>
      </trkpt>
      <trkpt lat="43.77545" lon="3.75582">
        <ele>287.2</ele>
        <time>2015-05-28T13:28:36Z</time>
      </trkpt>
      <trkpt lat="43.77559" lon="3.7557">
        <ele>286.2</ele>
        <time>2015-05-28T13:28:50Z</time>
      </trkpt>
      <trkpt lat="43.77566" lon="3.75569">
        <ele>285.2</ele>
        <time>2015-05-28T13:28:56Z</time>
      </trkpt>
      <trkpt lat="43.7758" lon="3.7557">
        <ele>275.2</ele>
        <time>2015-05-28T13:29:08Z</time>
      </trkpt>
      <trkpt lat="43.77589" lon="3.75566">
        <ele>264.2</ele>
        <time>2015-05-28T13:29:21Z</time>
      </trkpt>
      <trkpt lat="43.77595" lon="3.75574">
        <ele>263.2</ele>
        <time>2015-05-28T13:29:34Z</time>
      </trkpt>
      <trkpt lat="43.77603" lon="3.7559">
        <ele>265.2</ele>
        <time>2015-05-28T13:29:51Z</time>
      </trkpt>
      <trkpt lat="43.77612" lon="3.75599">
        <ele>265.2</ele>
        <time>2015-05-28T13:30:01Z</time>
      </trkpt>
      <trkpt lat="43.77625" lon="3.75609">
        <ele>265.2</ele>
        <time>2015-05-28T13:30:13Z</time>
      </trkpt>
      <trkpt lat="43.77636" lon="3.75613">
        <ele>267.2</ele>
        <time>2015-05-28T13:30:23Z</time>
      </trkpt>
      <trkpt lat="43.77663" lon="3.75616">
        <ele>260.2</ele>
        <time>2015-05-28T13:30:46Z</time>
      </trkpt>
      <trkpt lat="43.77678" lon="3.7562">
        <ele>259.2</ele>
        <time>2015-05-28T13:31:02Z</time>
      </trkpt>
      <trkpt lat="43.77684" lon="3.75621">
        <ele>260.2</ele>
        <time>2015-05-28T13:31:09Z</time>
      </trkpt>
      <trkpt lat="43.77696" lon="3.75619">
        <ele>260.2</ele>
        <time>2015-05-28T13:31:22Z</time>
      </trkpt>
      <trkpt lat="43.7771" lon="3.75616">
        <ele>263.2</ele>
        <time>2015-05-28T13:31:37Z</time>
      </trkpt>
      <trkpt lat="43.77719" lon="3.75611">
        <ele>264.2</ele>
        <time>2015-05-28T13:31:47Z</time>
      </trkpt>
      <trkpt lat="43.77737" lon="3.75597">
        <ele>263.2</ele>
        <time>2015-05-28T13:32:05Z</time>
      </trkpt>
      <trkpt lat="43.77753" lon="3.75593">
        <ele>266.2</ele>
        <time>2015-05-28T13:32:25Z</time>
      </trkpt>
      <trkpt lat="43.77765" lon="3.75587">
        <ele>268.2</ele>
        <time>2015-05-28T13:32:44Z</time>
      </trkpt>
      <trkpt lat="43.77771" lon="3.7558">
        <ele>270.2</ele>
        <time>2015-05-28T13:32:55Z</time>
      </trkpt>
      <trkpt lat="43.77781" lon="3.75578">
        <ele>273.2</ele>
        <time>2015-05-28T13:33:10Z</time>
      </trkpt>
      <trkpt lat="43.77801" lon="3.75569">
        <ele>271.2</ele>
        <time>2015-05-28T13:33:46Z</time>
      </trkpt>
      <trkpt lat="43.77825" lon="3.75561">
        <ele>246.2</ele>
        <time>2015-05-28T13:34:21Z</time>
      </trkpt>
      <trkpt lat="43.77827" lon="3.75558">
        <ele>250.2</ele>
        <time>2015-05-28T13:34:27Z</time>
      </trkpt>
      <trkpt lat="43.77826" lon="3.75557">
        <ele>251.2</ele>
        <time>2015-05-28T13:34:30Z</time>
      </trkpt>
      <trkpt lat="43.77824" lon="3.75558">
        <ele>258.2</ele>
        <time>2015-05-28T13:34:39Z</time>
      </trkpt>
      <trkpt lat="43.77824" lon="3.75556">
        <ele>261.2</ele>
        <time>2015-05-28T13:34:44Z</time>
      </trkpt>
      <trkpt lat="43.77829" lon="3.75551">
        <ele>267.2</ele>
        <time>2015-05-28T13:34:58Z</time>
      </trkpt>
      <trkpt lat="43.77829" lon="3.75547">
        <ele>268.2</ele>
        <time>2015-05-28T13:35:04Z</time>
      </trkpt>
      <trkpt lat="43.77828" lon="3.75544">
        <ele>269.2</ele>
        <time>2015-05-28T13:35:08Z</time>
      </trkpt>
      <trkpt lat="43.77825" lon="3.75542">
        <ele>277.2</ele>
        <time>2015-05-28T13:36:03Z</time>
      </trkpt>
      <trkpt lat="43.77828" lon="3.7554">
        <ele>281.2</ele>
        <time>2015-05-28T13:38:37Z</time>
      </trkpt>
      <trkpt lat="43.77841" lon="3.75506">
        <ele>282.2</ele>
        <time>2015-05-28T13:39:05Z</time>
      </trkpt>
      <trkpt lat="43.77842" lon="3.75492">
        <ele>282.2</ele>
        <time>2015-05-28T13:39:17Z</time>
      </trkpt>
      <trkpt lat="43.77839" lon="3.75468">
        <ele>284.2</ele>
        <time>2015-05-28T13:39:37Z</time>
      </trkpt>
      <trkpt lat="43.7784" lon="3.75442">
        <ele>286.2</ele>
        <time>2015-05-28T13:39:57Z</time>
      </trkpt>
      <trkpt lat="43.77843" lon="3.75435">
        <ele>286.2</ele>
        <time>2015-05-28T13:40:04Z</time>
      </trkpt>
      <trkpt lat="43.77849" lon="3.75425">
        <ele>287.2</ele>
        <time>2015-05-28T13:40:16Z</time>
      </trkpt>
      <trkpt lat="43.77856" lon="3.75418">
        <ele>288.2</ele>
        <time>2015-05-28T13:40:30Z</time>
      </trkpt>
      <trkpt lat="43.77848" lon="3.75409">
        <ele>293.2</ele>
        <time>2015-05-28T13:42:48Z</time>
      </trkpt>
      <trkpt lat="43.77841" lon="3.75406">
        <ele>293.2</ele>
        <time>2015-05-28T13:42:56Z</time>
      </trkpt>
      <trkpt lat="43.77838" lon="3.75402">
        <ele>294.2</ele>
        <time>2015-05-28T13:43:02Z</time>
      </trkpt>
      <trkpt lat="43.77835" lon="3.75373">
        <ele>293.2</ele>
        <time>2015-05-28T13:43:25Z</time>
      </trkpt>
      <trkpt lat="43.77821" lon="3.75323">
        <ele>291.2</ele>
        <time>2015-05-28T13:44:12Z</time>
      </trkpt>
      <trkpt lat="43.77816" lon="3.75298">
        <ele>290.2</ele>
        <time>2015-05-28T13:44:34Z</time>
      </trkpt>
      <trkpt lat="43.77815" lon="3.75277">
        <ele>290.2</ele>
        <time>2015-05-28T13:44:52Z</time>
      </trkpt>
      <trkpt lat="43.77813" lon="3.75258">
        <ele>288.2</ele>
        <time>2015-05-28T13:45:08Z</time>
      </trkpt>
      <trkpt lat="43.77812" lon="3.75191">
        <ele>287.2</ele>
        <time>2015-05-28T13:45:56Z</time>
      </trkpt>
      <trkpt lat="43.77814" lon="3.75143">
        <ele>284.2</ele>
        <time>2015-05-28T13:46:27Z</time>
      </trkpt>
      <trkpt lat="43.77813" lon="3.75093">
        <ele>282.2</ele>
        <time>2015-05-28T13:47:00Z</time>
      </trkpt>
      <trkpt lat="43.77811" lon="3.75073">
        <ele>282.2</ele>
        <time>2015-05-28T13:47:17Z</time>
      </trkpt>
      <trkpt lat="43.77807" lon="3.7506">
        <ele>282.2</ele>
        <time>2015-05-28T13:47:30Z</time>
      </trkpt>
      <trkpt lat="43.77807" lon="3.75046">
        <ele>281.2</ele>
        <time>2015-05-28T13:47:42Z</time>
      </trkpt>
      <trkpt lat="43.77809" lon="3.75039">
        <ele>280.2</ele>
        <time>2015-05-28T13:47:51Z</time>
      </trkpt>
      <trkpt lat="43.77824" lon="3.75026">
        <ele>275.2</ele>
        <time>2015-05-28T13:48:24Z</time>
      </trkpt>
      <trkpt lat="43.77827" lon="3.7502">
        <ele>275.2</ele>
        <time>2015-05-28T13:48:30Z</time>
      </trkpt>
      <trkpt lat="43.77824" lon="3.75">
        <ele>273.2</ele>
        <time>2015-05-28T13:48:47Z</time>
      </trkpt>
      <trkpt lat="43.77826" lon="3.7498">
        <ele>272.2</ele>
        <time>2015-05-28T13:49:09Z</time>
      </trkpt>
      <trkpt lat="43.77824" lon="3.74952">
        <ele>271.2</ele>
        <time>2015-05-28T13:49:39Z</time>
      </trkpt>
      <trkpt lat="43.77825" lon="3.74923">
        <ele>267.2</ele>
        <time>2015-05-28T13:50:20Z</time>
      </trkpt>
      <trkpt lat="43.77824" lon="3.74907">
        <ele>265.2</ele>
        <time>2015-05-28T13:50:44Z</time>
      </trkpt>
      <trkpt lat="43.77824" lon="3.74896">
        <ele>265.2</ele>
        <time>2015-05-28T13:50:56Z</time>
      </trkpt>
      <trkpt lat="43.77822" lon="3.74885">
        <ele>264.2</ele>
        <time>2015-05-28T13:51:06Z</time>
      </trkpt>
      <trkpt lat="43.77817" lon="3.74876">
        <ele>263.2</ele>
        <time>2015-05-28T13:51:17Z</time>
      </trkpt>
      <trkpt lat="43.77815" lon="3.74861">
        <ele>260.2</ele>
        <time>2015-05-28T13:51:41Z</time>
      </trkpt>
      <trkpt lat="43.77811" lon="3.74854">
        <ele>258.2</ele>
        <time>2015-05-28T13:51:57Z</time>
      </trkpt>
      <trkpt lat="43.77812" lon="3.74835">
        <ele>257.2</ele>
        <time>2015-05-28T13:52:14Z</time>
      </trkpt>
      <trkpt lat="43.7781" lon="3.74827">
        <ele>256.2</ele>
        <time>2015-05-28T13:52:22Z</time>
      </trkpt>
      <trkpt lat="43.77804" lon="3.74814">
        <ele>253.2</ele>
        <time>2015-05-28T13:52:34Z</time>
      </trkpt>
      <trkpt lat="43.77798" lon="3.74775">
        <ele>246.2</ele>
        <time>2015-05-28T13:53:05Z</time>
      </trkpt>
      <trkpt lat="43.77799" lon="3.74744">
        <ele>243.2</ele>
        <time>2015-05-28T13:53:26Z</time>
      </trkpt>
      <trkpt lat="43.77802" lon="3.74722">
        <ele>240.2</ele>
        <time>2015-05-28T13:54:03Z</time>
      </trkpt>
      <trkpt lat="43.77795" lon="3.747">
        <ele>239.2</ele>
        <time>2015-05-28T13:54:24Z</time>
      </trkpt>
      <trkpt lat="43.77789" lon="3.74659">
        <ele>231.2</ele>
        <time>2015-05-28T13:55:01Z</time>
      </trkpt>
      <trkpt lat="43.77782" lon="3.74633">
        <ele>227.2</ele>
        <time>2015-05-28T13:55:24Z</time>
      </trkpt>
      <trkpt lat="43.77773" lon="3.74632">
        <ele>227.2</ele>
        <time>2015-05-28T13:55:34Z</time>
      </trkpt>
      <trkpt lat="43.77766" lon="3.74629">
        <ele>227.2</ele>
        <time>2015-05-28T13:55:44Z</time>
      </trkpt>
      <trkpt lat="43.77764" lon="3.74627">
        <ele>227.2</ele>
        <time>2015-05-28T13:55:47Z</time>
      </trkpt>
      <trkpt lat="43.77768" lon="3.74616">
        <ele>226.2</ele>
        <time>2015-05-28T13:55:58Z</time>
      </trkpt>
      <trkpt lat="43.77769" lon="3.74603">
        <ele>224.2</ele>
        <time>2015-05-28T13:56:14Z</time>
      </trkpt>
      <trkpt lat="43.77769" lon="3.74601">
        <ele>224.2</ele>
        <time>2015-05-28T13:56:17Z</time>
      </trkpt>
      <trkpt lat="43.77768" lon="3.74603">
        <ele>221.2</ele>
        <time>2015-05-28T13:57:14Z</time>
      </trkpt>
      <trkpt lat="43.77767" lon="3.74602">
        <ele>221.2</ele>
        <time>2015-05-28T13:57:19Z</time>
      </trkpt>
      <trkpt lat="43.77765" lon="3.74595">
        <ele>220.2</ele>
        <time>2015-05-28T13:57:28Z</time>
      </trkpt>
      <trkpt lat="43.77766" lon="3.74587">
        <ele>219.2</ele>
        <time>2015-05-28T13:57:37Z</time>
      </trkpt>
      <trkpt lat="43.77767" lon="3.74582">
        <ele>219.2</ele>
        <time>2015-05-28T13:57:43Z</time>
      </trkpt>
      <trkpt lat="43.77771" lon="3.74576">
        <ele>219.2</ele>
        <time>2015-05-28T13:57:50Z</time>
      </trkpt>
      <trkpt lat="43.77779" lon="3.7457">
        <ele>219.2</ele>
        <time>2015-05-28T13:57:59Z</time>
      </trkpt>
      <trkpt lat="43.77784" lon="3.74564">
        <ele>219.2</ele>
        <time>2015-05-28T13:58:04Z</time>
      </trkpt>
      <trkpt lat="43.77807" lon="3.74513">
        <ele>221.2</ele>
        <time>2015-05-28T13:58:45Z</time>
      </trkpt>
      <trkpt lat="43.77819" lon="3.74479">
        <ele>222.2</ele>
        <time>2015-05-28T13:59:10Z</time>
      </trkpt>
      <trkpt lat="43.77824" lon="3.7447">
        <ele>222.2</ele>
        <time>2015-05-28T13:59:18Z</time>
      </trkpt>
      <trkpt lat="43.77841" lon="3.74445">
        <ele>222.2</ele>
        <time>2015-05-28T13:59:45Z</time>
      </trkpt>
      <trkpt lat="43.77845" lon="3.7443">
        <ele>221.2</ele>
        <time>2015-05-28T13:59:57Z</time>
      </trkpt>
      <trkpt lat="43.77843" lon="3.74407">
        <ele>221.2</ele>
        <time>2015-05-28T14:00:17Z</time>
      </trkpt>
      <trkpt lat="43.77842" lon="3.74403">
        <ele>221.2</ele>
        <time>2015-05-28T14:00:21Z</time>
      </trkpt>
      <trkpt lat="43.77837" lon="3.74397">
        <ele>221.2</ele>
        <time>2015-05-28T14:00:26Z</time>
      </trkpt>
      <trkpt lat="43.77834" lon="3.7439">
        <ele>221.2</ele>
        <time>2015-05-28T14:00:31Z</time>
      </trkpt>
      <trkpt lat="43.77827" lon="3.74355">
        <ele>218.2</ele>
        <time>2015-05-28T14:00:57Z</time>
      </trkpt>
      <trkpt lat="43.77817" lon="3.74318">
        <ele>215.2</ele>
        <time>2015-05-28T14:01:25Z</time>
      </trkpt>
      <trkpt lat="43.77815" lon="3.74302">
        <ele>216.2</ele>
        <time>2015-05-28T14:01:41Z</time>
      </trkpt>
      <trkpt lat="43.77817" lon="3.74303">
        <ele>216.2</ele>
        <time>2015-05-28T14:02:54Z</time>
      </trkpt>
      <trkpt lat="43.77818" lon="3.74304">
        <ele>216.2</ele>
        <time>2015-05-28T14:06:26Z</time>
      </trkpt>
      <trkpt lat="43.77817" lon="3.74304">
        <ele>213.2</ele>
        <time>2015-05-28T14:06:39Z</time>
      </trkpt>
      <trkpt lat="43.77837" lon="3.74298">
        <ele>213.2</ele>
        <time>2015-05-28T14:07:52Z</time>
      </trkpt>
      <trkpt lat="43.77847" lon="3.74297">
        <ele>213.2</ele>
        <time>2015-05-28T14:08:05Z</time>
      </trkpt>
      <trkpt lat="43.77856" lon="3.74291">
        <ele>212.2</ele>
        <time>2015-05-28T14:08:14Z</time>
      </trkpt>
      <trkpt lat="43.77873" lon="3.74273">
        <ele>212.1</ele>
        <time>2015-05-28T14:08:36Z</time>
      </trkpt>
      <trkpt lat="43.77876" lon="3.74265">
        <ele>213.1</ele>
        <time>2015-05-28T14:08:42Z</time>
      </trkpt>
      <trkpt lat="43.77878" lon="3.74244">
        <ele>213.1</ele>
        <time>2015-05-28T14:08:58Z</time>
      </trkpt>
      <trkpt lat="43.77881" lon="3.74237">
        <ele>213.1</ele>
        <time>2015-05-28T14:09:05Z</time>
      </trkpt>
      <trkpt lat="43.77884" lon="3.74233">
        <ele>215.1</ele>
        <time>2015-05-28T14:09:10Z</time>
      </trkpt>
      <trkpt lat="43.77898" lon="3.7422">
        <ele>216.1</ele>
        <time>2015-05-28T14:09:25Z</time>
      </trkpt>
      <trkpt lat="43.77908" lon="3.74214">
        <ele>216.1</ele>
        <time>2015-05-28T14:09:34Z</time>
      </trkpt>
      <trkpt lat="43.77956" lon="3.74189">
        <ele>220.1</ele>
        <time>2015-05-28T14:10:20Z</time>
      </trkpt>
      <trkpt lat="43.77989" lon="3.74167">
        <ele>223.1</ele>
        <time>2015-05-28T14:10:50Z</time>
      </trkpt>
      <trkpt lat="43.78004" lon="3.74154">
        <ele>222.1</ele>
        <time>2015-05-28T14:11:04Z</time>
      </trkpt>
      <trkpt lat="43.78031" lon="3.74116">
        <ele>218.1</ele>
        <time>2015-05-28T14:11:34Z</time>
      </trkpt>
      <trkpt lat="43.78053" lon="3.74068">
        <ele>215.1</ele>
        <time>2015-05-28T14:12:07Z</time>
      </trkpt>
      <trkpt lat="43.78134" lon="3.73931">
        <ele>212.1</ele>
        <time>2015-05-28T14:13:57Z</time>
      </trkpt>
      <trkpt lat="43.78184" lon="3.73871">
        <ele>211.1</ele>
        <time>2015-05-28T14:14:52Z</time>
      </trkpt>
      <trkpt lat="43.78199" lon="3.73852">
        <ele>211.1</ele>
        <time>2015-05-28T14:15:09Z</time>
      </trkpt>
      <trkpt lat="43.78232" lon="3.73814">
        <ele>212.1</ele>
        <time>2015-05-28T14:15:44Z</time>
      </trkpt>
      <trkpt lat="43.78245" lon="3.73804">
        <ele>210.1</ele>
        <time>2015-05-28T14:15:55Z</time>
      </trkpt>
      <trkpt lat="43.7826" lon="3.73795">
        <ele>209.1</ele>
        <time>2015-05-28T14:16:09Z</time>
      </trkpt>
      <trkpt lat="43.78276" lon="3.73791">
        <ele>209.1</ele>
        <time>2015-05-28T14:16:22Z</time>
      </trkpt>
      <trkpt lat="43.78293" lon="3.73784">
        <ele>208.1</ele>
        <time>2015-05-28T14:16:37Z</time>
      </trkpt>
      <trkpt lat="43.78343" lon="3.73773">
        <ele>209.1</ele>
        <time>2015-05-28T14:17:22Z</time>
      </trkpt>
      <trkpt lat="43.78359" lon="3.73767">
        <ele>209.1</ele>
        <time>2015-05-28T14:17:35Z</time>
      </trkpt>
      <trkpt lat="43.78372" lon="3.73756">
        <ele>208.1</ele>
        <time>2015-05-28T14:17:47Z</time>
      </trkpt>
      <trkpt lat="43.78404" lon="3.73719">
        <ele>207.1</ele>
        <time>2015-05-28T14:18:20Z</time>
      </trkpt>
      <trkpt lat="43.78413" lon="3.73712">
        <ele>207.1</ele>
        <time>2015-05-28T14:18:29Z</time>
      </trkpt>
      <trkpt lat="43.78421" lon="3.7371">
        <ele>206.1</ele>
        <time>2015-05-28T14:18:36Z</time>
      </trkpt>
      <trkpt lat="43.7843" lon="3.73711">
        <ele>204.1</ele>
        <time>2015-05-28T14:18:46Z</time>
      </trkpt>
      <trkpt lat="43.78471" lon="3.73707">
        <ele>203.1</ele>
        <time>2015-05-28T14:19:20Z</time>
      </trkpt>
      <trkpt lat="43.7849" lon="3.737">
        <ele>202.1</ele>
        <time>2015-05-28T14:19:37Z</time>
      </trkpt>
      <trkpt lat="43.78497" lon="3.73696">
        <ele>202.1</ele>
        <time>2015-05-28T14:19:45Z</time>
      </trkpt>
      <trkpt lat="43.78498" lon="3.73648">
        <ele>203.1</ele>
        <time>2015-05-28T14:20:16Z</time>
      </trkpt>
      <trkpt lat="43.78495" lon="3.73643">
        <ele>202.1</ele>
        <time>2015-05-28T14:20:21Z</time>
      </trkpt>
      <trkpt lat="43.78494" lon="3.73637">
        <ele>201.1</ele>
        <time>2015-05-28T14:20:26Z</time>
      </trkpt>
      <trkpt lat="43.78495" lon="3.73628">
        <ele>199.1</ele>
        <time>2015-05-28T14:20:31Z</time>
      </trkpt>
      <trkpt lat="43.78505" lon="3.73613">
        <ele>196.1</ele>
        <time>2015-05-28T14:20:44Z</time>
      </trkpt>
      <trkpt lat="43.7854" lon="3.73579">
        <ele>200.1</ele>
        <time>2015-05-28T14:21:19Z</time>
      </trkpt>
      <trkpt lat="43.78548" lon="3.73568">
        <ele>198.1</ele>
        <time>2015-05-28T14:21:29Z</time>
      </trkpt>
      <trkpt lat="43.78554" lon="3.73556">
        <ele>200.1</ele>
        <time>2015-05-28T14:21:39Z</time>
      </trkpt>
      <trkpt lat="43.78562" lon="3.73543">
        <ele>200.1</ele>
        <time>2015-05-28T14:21:50Z</time>
      </trkpt>
      <trkpt lat="43.78565" lon="3.73525">
        <ele>199.1</ele>
        <time>2015-05-28T14:22:00Z</time>
      </trkpt>
      <trkpt lat="43.78567" lon="3.7352">
        <ele>200.1</ele>
        <time>2015-05-28T14:22:05Z</time>
      </trkpt>
      <trkpt lat="43.78572" lon="3.73519">
        <ele>201.1</ele>
        <time>2015-05-28T14:22:32Z</time>
      </trkpt>
      <trkpt lat="43.78585" lon="3.73512">
        <ele>200.1</ele>
        <time>2015-05-28T14:22:53Z</time>
      </trkpt>
      <trkpt lat="43.78609" lon="3.73491">
        <ele>201.1</ele>
        <time>2015-05-28T14:23:17Z</time>
      </trkpt>
      <trkpt lat="43.78619" lon="3.7348">
        <ele>202.1</ele>
        <time>2015-05-28T14:23:31Z</time>
      </trkpt>
      <trkpt lat="43.78632" lon="3.73463">
        <ele>202.1</ele>
        <time>2015-05-28T14:23:48Z</time>
      </trkpt>
      <trkpt lat="43.7866" lon="3.73431">
        <ele>200.1</ele>
        <time>2015-05-28T14:24:23Z</time>
      </trkpt>
      <trkpt lat="43.78673" lon="3.73419">
        <ele>204.1</ele>
        <time>2015-05-28T14:24:41Z</time>
      </trkpt>
      <trkpt lat="43.78689" lon="3.73397">
        <ele>204.1</ele>
        <time>2015-05-28T14:24:58Z</time>
      </trkpt>
      <trkpt lat="43.78703" lon="3.73381">
        <ele>206.1</ele>
        <time>2015-05-28T14:25:12Z</time>
      </trkpt>
      <trkpt lat="43.78727" lon="3.73356">
        <ele>203.1</ele>
        <time>2015-05-28T14:25:32Z</time>
      </trkpt>
      <trkpt lat="43.78751" lon="3.73322">
        <ele>200.1</ele>
        <time>2015-05-28T14:26:05Z</time>
      </trkpt>
      <trkpt lat="43.7879" lon="3.73284">
        <ele>202.1</ele>
        <time>2015-05-28T14:26:48Z</time>
      </trkpt>
      <trkpt lat="43.78804" lon="3.73267">
        <ele>202.1</ele>
        <time>2015-05-28T14:27:03Z</time>
      </trkpt>
      <trkpt lat="43.7881" lon="3.73257">
        <ele>202.1</ele>
        <time>2015-05-28T14:27:12Z</time>
      </trkpt>
      <trkpt lat="43.78833" lon="3.73232">
        <ele>203.1</ele>
        <time>2015-05-28T14:27:38Z</time>
      </trkpt>
      <trkpt lat="43.78842" lon="3.73216">
        <ele>202.1</ele>
        <time>2015-05-28T14:27:51Z</time>
      </trkpt>
      <trkpt lat="43.78846" lon="3.73214">
        <ele>201.1</ele>
        <time>2015-05-28T14:27:56Z</time>
      </trkpt>
      <trkpt lat="43.78855" lon="3.73216">
        <ele>201.1</ele>
        <time>2015-05-28T14:28:06Z</time>
      </trkpt>
      <trkpt lat="43.789" lon="3.73237">
        <ele>206.1</ele>
        <time>2015-05-28T14:28:52Z</time>
      </trkpt>
      <trkpt lat="43.78911" lon="3.73237">
        <ele>205.1</ele>
        <time>2015-05-28T14:29:00Z</time>
      </trkpt>
      <trkpt lat="43.78918" lon="3.73233">
        <ele>205.1</ele>
        <time>2015-05-28T14:29:06Z</time>
      </trkpt>
      <trkpt lat="43.78924" lon="3.73223">
        <ele>204.1</ele>
        <time>2015-05-28T14:29:12Z</time>
      </trkpt>
      <trkpt lat="43.78927" lon="3.73205">
        <ele>202.1</ele>
        <time>2015-05-28T14:29:22Z</time>
      </trkpt>
      <trkpt lat="43.78927" lon="3.73198">
        <ele>202.1</ele>
        <time>2015-05-28T14:29:26Z</time>
      </trkpt>
      <trkpt lat="43.78919" lon="3.73179">
        <ele>201.1</ele>
        <time>2015-05-28T14:29:41Z</time>
      </trkpt>
      <trkpt lat="43.78918" lon="3.73161">
        <ele>201.1</ele>
        <time>2015-05-28T14:29:56Z</time>
      </trkpt>
      <trkpt lat="43.78922" lon="3.73166">
        <ele>201.1</ele>
        <time>2015-05-28T14:30:14Z</time>
      </trkpt>
      <trkpt lat="43.78922" lon="3.7317">
        <ele>202.1</ele>
        <time>2015-05-28T14:30:30Z</time>
      </trkpt>
    </trkseg>
  </trk>
</gpx>